SIA927A EGLL-WSSS
Flight info
| Callsign | SIA927A |
|---|---|
| Flight time | N/A |
| Altitude | 37000 |
| Route | DET L6 DVR L9 KONAN UL607 FERDI DCT MATUG DCT GUBAX DCT KOMIB L984 SULUS Z650 VEMUT DCT DITIS DCT ERGOM DCT BUDOP DCT UDROS UM859 BAMUP/N0490F390 UM859 KARDE UL851 TBN UR317 REBLO M11 LUSAL N199 BAKUV N701 LARGI B701 KRS A240 INRAK B449 DOLOS B475 RUBAD A846 RANAH L750 BIROS/N0489F410 L750 ZB G202 HILAL/N0492F390 G202 RK/N0490F410 P628 IBANI L510 GIVAL P628 VPL Y503 RINBA Y507 MAKNA Y511 TOPOR A464 ARAMA DCT TEBUN TEBUN1A |
| Aircraft | A359/H-SDE2E3GHIJ3J4J5LM1ORWXY/LB1D1 |
Departure
| Time | 2026-05-03 20:26 |
|---|---|
| Airport | London Heathrow Airport (EGLL) |
Arrival
| Time | N/A |
|---|---|
| Airport | Singapore Changi Airport (WSSS) |
| Time | Latitude | Longitude | Altitude | Speed | Heading |
|---|---|---|---|---|---|
| 2026-05-03 20:15 | 51.47177 | -0.44558 | 92 ft | 0 kts | 180° |
| 2026-05-03 20:16 | 51.47170 | -0.44558 | 92 ft | 4 kts | 180° |
| 2026-05-03 20:16 | 51.47095 | -0.44557 | 92 ft | 17 kts | 180° |
| 2026-05-03 20:16 | 51.46968 | -0.44556 | 92 ft | 18 kts | 179° |
| 2026-05-03 20:17 | 51.46841 | -0.44556 | 92 ft | 19 kts | 180° |
| 2026-05-03 20:17 | 51.46758 | -0.44521 | 96 ft | 3 kts | 113° |
| 2026-05-03 20:17 | 51.46755 | -0.44478 | 94 ft | 7 kts | 95° |
| 2026-05-03 20:17 | 51.46753 | -0.44378 | 95 ft | 10 kts | 90° |
| 2026-05-03 20:18 | 51.46754 | -0.44262 | 95 ft | 11 kts | 90° |
| 2026-05-03 20:18 | 51.46754 | -0.44221 | 96 ft | 0 kts | 90° |
| 2026-05-03 20:19 | 51.46756 | -0.44128 | 95 ft | 21 kts | 84° |
| 2026-05-03 20:19 | 51.46770 | -0.43862 | 95 ft | 21 kts | 88° |
| 2026-05-03 20:19 | 51.46769 | -0.43683 | 95 ft | 12 kts | 102° |
| 2026-05-03 20:19 | 51.46716 | -0.43610 | 94 ft | 10 kts | 166° |
| 2026-05-03 20:20 | 51.46692 | -0.43607 | 96 ft | 0 kts | 179° |
| 2026-05-03 20:20 | 51.46658 | -0.43605 | 92 ft | 0 kts | 179° |
| 2026-05-03 20:23 | 51.46643 | -0.43605 | 92 ft | 10 kts | 179° |
| 2026-05-03 20:23 | 51.46537 | -0.43615 | 94 ft | 15 kts | 201° |
| 2026-05-03 20:24 | 51.46498 | -0.43727 | 93 ft | 12 kts | 262° |
| 2026-05-03 20:24 | 51.46495 | -0.43767 | 92 ft | 0 kts | 269° |
| 2026-05-03 20:25 | 51.46495 | -0.43770 | 92 ft | 4 kts | 269° |
| 2026-05-03 20:25 | 51.46494 | -0.44118 | 92 ft | 62 kts | 269° |
| 2026-05-03 20:26 | 51.46491 | -0.45113 | 96 ft | 115 kts | 269° |
| 2026-05-03 20:26 | 51.46487 | -0.46646 | 99 ft | 160 kts | 270° |
| 2026-05-03 20:26 | 51.46485 | -0.48435 | 688 ft | 153 kts | 270° |
| 2026-05-03 20:26 | 51.46472 | -0.50129 | 1177 ft | 156 kts | 266° |
| 2026-05-03 20:27 | 51.45946 | -0.51861 | 818 ft | 201 kts | 218° |
| 2026-05-03 20:27 | 51.44547 | -0.52523 | 891 ft | 225 kts | 174° |
| 2026-05-03 20:27 | 51.43186 | -0.51407 | 1524 ft | 222 kts | 131° |
| 2026-05-03 20:27 | 51.42377 | -0.49317 | 2035 ft | 231 kts | 117° |
| 2026-05-03 20:28 | 51.41504 | -0.47112 | 2233 ft | 249 kts | 138° |
| 2026-05-03 20:28 | 51.40079 | -0.45464 | 2670 ft | 255 kts | 148° |
| 2026-05-03 20:28 | 51.38567 | -0.43961 | 3297 ft | 257 kts | 149° |
| 2026-05-03 20:28 | 51.37037 | -0.42496 | 3889 ft | 258 kts | 150° |
| 2026-05-03 20:29 | 51.35488 | -0.41048 | 4492 ft | 261 kts | 150° |
| 2026-05-03 20:29 | 51.33891 | -0.39577 | 5093 ft | 263 kts | 150° |
| 2026-05-03 20:29 | 51.32444 | -0.37902 | 5629 ft | 267 kts | 135° |
| 2026-05-03 20:29 | 51.31459 | -0.35351 | 5966 ft | 272 kts | 108° |
| 2026-05-03 20:30 | 51.31342 | -0.32359 | 6019 ft | 274 kts | 79° |
| 2026-05-03 20:30 | 51.31730 | -0.29361 | 5964 ft | 277 kts | 84° |
| 2026-05-03 20:30 | 51.31808 | -0.26295 | 5917 ft | 276 kts | 91° |
| 2026-05-03 20:30 | 51.31785 | -0.23235 | 5908 ft | 276 kts | 92° |
| 2026-05-03 20:31 | 51.31747 | -0.20171 | 5915 ft | 276 kts | 92° |
| 2026-05-03 20:31 | 51.31704 | -0.17109 | 5910 ft | 276 kts | 92° |
| 2026-05-03 20:31 | 51.31665 | -0.14056 | 5911 ft | 276 kts | 92° |
| 2026-05-03 20:31 | 51.31621 | -0.10987 | 5903 ft | 276 kts | 92° |
| 2026-05-03 20:32 | 51.31576 | -0.08014 | 5913 ft | 276 kts | 92° |
| 2026-05-03 20:32 | 51.31530 | -0.04866 | 5914 ft | 276 kts | 92° |
| 2026-05-03 20:32 | 51.31484 | -0.01794 | 5909 ft | 276 kts | 92° |
| 2026-05-03 20:32 | 51.31453 | 0.00232 | 5925 ft | 276 kts | 92° |
| 2026-05-03 20:33 | 51.31406 | 0.03293 | 5931 ft | 276 kts | 92° |
| 2026-05-03 20:33 | 51.31358 | 0.06367 | 5947 ft | 276 kts | 92° |
| 2026-05-03 20:33 | 51.31310 | 0.09403 | 5951 ft | 276 kts | 92° |
| 2026-05-03 20:33 | 51.31261 | 0.12470 | 5958 ft | 276 kts | 92° |
| 2026-05-03 20:34 | 51.31211 | 0.15531 | 5968 ft | 276 kts | 92° |
| 2026-05-03 20:34 | 51.31160 | 0.18611 | 5972 ft | 276 kts | 92° |
| 2026-05-03 20:34 | 51.31108 | 0.21675 | 5975 ft | 276 kts | 92° |
| 2026-05-03 20:34 | 51.31056 | 0.24729 | 5983 ft | 276 kts | 92° |
| 2026-05-03 20:35 | 51.31002 | 0.27812 | 5990 ft | 276 kts | 92° |
| 2026-05-03 20:35 | 51.30949 | 0.30868 | 5991 ft | 276 kts | 92° |
| 2026-05-03 20:35 | 51.30894 | 0.33935 | 6001 ft | 276 kts | 92° |
| 2026-05-03 20:35 | 51.30838 | 0.36991 | 6003 ft | 276 kts | 92° |
| 2026-05-03 20:36 | 51.30782 | 0.40056 | 6005 ft | 276 kts | 92° |
| 2026-05-03 20:36 | 51.30725 | 0.43119 | 6008 ft | 276 kts | 92° |
| 2026-05-03 20:36 | 51.30667 | 0.46197 | 6008 ft | 276 kts | 92° |
| 2026-05-03 20:36 | 51.30613 | 0.49270 | 6001 ft | 276 kts | 92° |
| 2026-05-03 20:37 | 51.30554 | 0.52340 | 5999 ft | 277 kts | 92° |
| 2026-05-03 20:37 | 51.30491 | 0.55406 | 5998 ft | 277 kts | 93° |
| 2026-05-03 20:37 | 51.30421 | 0.58485 | 5992 ft | 277 kts | 94° |
| 2026-05-03 20:37 | 51.30158 | 0.61518 | 5988 ft | 276 kts | 103° |
| 2026-05-03 20:38 | 51.29702 | 0.64492 | 5984 ft | 275 kts | 107° |
| 2026-05-03 20:38 | 51.29155 | 0.67406 | 5980 ft | 275 kts | 108° |
| 2026-05-03 20:38 | 51.28572 | 0.70330 | 5981 ft | 275 kts | 109° |
| 2026-05-03 20:38 | 51.27991 | 0.73239 | 6196 ft | 276 kts | 109° |
| 2026-05-03 20:39 | 51.27416 | 0.76190 | 6678 ft | 278 kts | 108° |
| 2026-05-03 20:39 | 51.26854 | 0.79142 | 7257 ft | 279 kts | 108° |
| 2026-05-03 20:39 | 51.26296 | 0.82128 | 7840 ft | 281 kts | 108° |
| 2026-05-03 20:39 | 51.25742 | 0.85126 | 8405 ft | 283 kts | 108° |
| 2026-05-03 20:40 | 51.25196 | 0.88096 | 8943 ft | 286 kts | 108° |
| 2026-05-03 20:40 | 51.24633 | 0.91155 | 9532 ft | 289 kts | 108° |
| 2026-05-03 20:40 | 51.24062 | 0.94247 | 9858 ft | 292 kts | 108° |
| 2026-05-03 20:40 | 51.23486 | 0.97365 | 9919 ft | 293 kts | 108° |
| 2026-05-03 20:41 | 51.22916 | 1.00445 | 10003 ft | 296 kts | 108° |
| 2026-05-03 20:41 | 51.22320 | 1.03646 | 10175 ft | 308 kts | 108° |
| 2026-05-03 20:41 | 51.21693 | 1.06996 | 10397 ft | 322 kts | 108° |
| 2026-05-03 20:41 | 51.21043 | 1.10461 | 10637 ft | 334 kts | 108° |
| 2026-05-03 20:42 | 51.20364 | 1.14080 | 10876 ft | 346 kts | 108° |
| 2026-05-03 20:42 | 51.19663 | 1.17819 | 11098 ft | 358 kts | 108° |
| 2026-05-03 20:42 | 51.18939 | 1.21672 | 11338 ft | 369 kts | 108° |
| 2026-05-03 20:42 | 51.18195 | 1.25633 | 11612 ft | 377 kts | 109° |
| 2026-05-03 20:43 | 51.17437 | 1.29660 | 12018 ft | 381 kts | 109° |
| 2026-05-03 20:43 | 51.16690 | 1.33741 | 12429 ft | 385 kts | 106° |
| 2026-05-03 20:43 | 51.16229 | 1.37976 | 12859 ft | 390 kts | 99° |
| 2026-05-03 20:43 | 51.15924 | 1.42285 | 13287 ft | 393 kts | 98° |
| 2026-05-03 20:44 | 51.15685 | 1.46644 | 13630 ft | 398 kts | 96° |
| 2026-05-03 20:44 | 51.15480 | 1.51059 | 13872 ft | 400 kts | 96° |
| 2026-05-03 20:44 | 51.15285 | 1.55501 | 13919 ft | 401 kts | 96° |
| 2026-05-03 20:44 | 51.15088 | 1.59937 | 13920 ft | 402 kts | 96° |
| 2026-05-03 20:45 | 51.14885 | 1.64356 | 13921 ft | 402 kts | 96° |
| 2026-05-03 20:45 | 51.14673 | 1.68795 | 14028 ft | 404 kts | 96° |
| 2026-05-03 20:45 | 51.14453 | 1.73274 | 14469 ft | 405 kts | 96° |
| 2026-05-03 20:45 | 51.14228 | 1.77736 | 14888 ft | 406 kts | 97° |
| 2026-05-03 20:46 | 51.14000 | 1.82233 | 15269 ft | 408 kts | 97° |
| 2026-05-03 20:46 | 51.13770 | 1.86699 | 15666 ft | 410 kts | 97° |
| 2026-05-03 20:46 | 51.13535 | 1.91238 | 16039 ft | 413 kts | 97° |
| 2026-05-03 20:46 | 51.13296 | 1.95825 | 16370 ft | 417 kts | 97° |
| 2026-05-03 20:47 | 51.13051 | 2.00493 | 16759 ft | 419 kts | 97° |
| 2026-05-03 20:47 | 51.12816 | 2.05065 | 17134 ft | 422 kts | 97° |
| 2026-05-03 20:47 | 51.12568 | 2.09749 | 17521 ft | 424 kts | 97° |
| 2026-05-03 20:47 | 51.12317 | 2.14425 | 17870 ft | 427 kts | 97° |
| 2026-05-03 20:48 | 51.12059 | 2.19159 | 18241 ft | 429 kts | 97° |
| 2026-05-03 20:48 | 51.11802 | 2.23866 | 18555 ft | 431 kts | 98° |
| 2026-05-03 20:48 | 51.11538 | 2.28665 | 18888 ft | 433 kts | 98° |
| 2026-05-03 20:48 | 51.11274 | 2.33456 | 19207 ft | 435 kts | 98° |
| 2026-05-03 20:49 | 51.11007 | 2.38258 | 19500 ft | 438 kts | 98° |
| 2026-05-03 20:49 | 51.10737 | 2.43078 | 19764 ft | 441 kts | 98° |
| 2026-05-03 20:49 | 51.10460 | 2.47985 | 20082 ft | 443 kts | 98° |
| 2026-05-03 20:49 | 51.10182 | 2.52878 | 20390 ft | 445 kts | 98° |
| 2026-05-03 20:50 | 51.09901 | 2.57777 | 20695 ft | 447 kts | 98° |
| 2026-05-03 20:50 | 51.09593 | 2.62699 | 20990 ft | 448 kts | 101° |
| 2026-05-03 20:50 | 51.08971 | 2.67591 | 21293 ft | 447 kts | 107° |
| 2026-05-03 20:50 | 51.08212 | 2.72314 | 21592 ft | 448 kts | 109° |
| 2026-05-03 20:51 | 51.07374 | 2.77109 | 21900 ft | 450 kts | 110° |
| 2026-05-03 20:51 | 51.06489 | 2.81962 | 22241 ft | 452 kts | 110° |
| 2026-05-03 20:51 | 51.05610 | 2.86705 | 22460 ft | 455 kts | 110° |
| 2026-05-03 20:51 | 51.04701 | 2.91597 | 22741 ft | 457 kts | 110° |
| 2026-05-03 20:52 | 51.03809 | 2.96411 | 23040 ft | 460 kts | 110° |
| 2026-05-03 20:52 | 51.02915 | 3.01257 | 23365 ft | 462 kts | 110° |
| 2026-05-03 20:52 | 51.02021 | 3.06109 | 23596 ft | 464 kts | 110° |
| 2026-05-03 20:52 | 51.01116 | 3.11020 | 23885 ft | 465 kts | 110° |
| 2026-05-03 20:53 | 51.00203 | 3.15966 | 24168 ft | 466 kts | 111° |
| 2026-05-03 20:53 | 50.99292 | 3.20892 | 24440 ft | 467 kts | 111° |
| 2026-05-03 20:53 | 50.98393 | 3.25736 | 24707 ft | 469 kts | 111° |
| 2026-05-03 20:53 | 50.97467 | 3.30716 | 24938 ft | 470 kts | 111° |
| 2026-05-03 20:54 | 50.96539 | 3.35685 | 25152 ft | 473 kts | 111° |
| 2026-05-03 20:54 | 50.94655 | 3.45731 | 25679 ft | 476 kts | 111° |
| 2026-05-03 20:54 | 50.93710 | 3.50757 | 25938 ft | 477 kts | 111° |
| 2026-05-03 20:55 | 50.92754 | 3.55820 | 26203 ft | 479 kts | 111° |
| 2026-05-03 20:55 | 50.91802 | 3.60855 | 26471 ft | 480 kts | 111° |
| 2026-05-03 20:55 | 50.90840 | 3.65947 | 26731 ft | 482 kts | 111° |
| 2026-05-03 20:55 | 50.89932 | 3.71075 | 27001 ft | 485 kts | 110° |
| 2026-05-03 20:56 | 50.89074 | 3.76202 | 27253 ft | 487 kts | 110° |
| 2026-05-03 20:56 | 50.88217 | 3.81405 | 27421 ft | 491 kts | 109° |
| 2026-05-03 20:56 | 50.87351 | 3.86643 | 27650 ft | 493 kts | 110° |
| 2026-05-03 20:56 | 50.86476 | 3.91887 | 27934 ft | 494 kts | 110° |
| 2026-05-03 20:57 | 50.85587 | 3.97153 | 28186 ft | 496 kts | 110° |
| 2026-05-03 20:57 | 50.84687 | 4.02427 | 28442 ft | 497 kts | 110° |
| 2026-05-03 20:57 | 50.83778 | 4.07717 | 28700 ft | 499 kts | 110° |
| 2026-05-03 20:57 | 50.82863 | 4.13018 | 28952 ft | 501 kts | 111° |
| 2026-05-03 20:58 | 50.81950 | 4.18290 | 29188 ft | 502 kts | 111° |
| 2026-05-03 20:58 | 50.81011 | 4.23692 | 29443 ft | 504 kts | 111° |
| 2026-05-03 20:58 | 50.80091 | 4.28968 | 29666 ft | 506 kts | 111° |
| 2026-05-03 20:58 | 50.79153 | 4.34341 | 29855 ft | 509 kts | 111° |
| 2026-05-03 20:59 | 50.78192 | 4.39817 | 30019 ft | 512 kts | 111° |
| 2026-05-03 20:59 | 50.77244 | 4.45210 | 30260 ft | 512 kts | 111° |
| 2026-05-03 20:59 | 50.76299 | 4.50582 | 30541 ft | 512 kts | 111° |
| 2026-05-03 20:59 | 50.75353 | 4.55942 | 30776 ft | 512 kts | 111° |
| 2026-05-03 21:00 | 50.74389 | 4.61388 | 31039 ft | 512 kts | 111° |
| 2026-05-03 21:00 | 50.74066 | 4.63205 | 31122 ft | 512 kts | 111° |
| 2026-05-03 21:00 | 50.72463 | 4.72200 | 31450 ft | 514 kts | 111° |
| 2026-05-03 21:00 | 50.71490 | 4.77637 | 31681 ft | 515 kts | 111° |
| 2026-05-03 21:01 | 50.70513 | 4.83079 | 31969 ft | 514 kts | 111° |
| 2026-05-03 21:01 | 50.69541 | 4.88484 | 32232 ft | 514 kts | 111° |
| 2026-05-03 21:01 | 50.68565 | 4.93893 | 32481 ft | 514 kts | 111° |
| 2026-05-03 21:01 | 50.67585 | 4.99308 | 32747 ft | 514 kts | 111° |
| 2026-05-03 21:02 | 50.66606 | 5.04700 | 32988 ft | 514 kts | 111° |
| 2026-05-03 21:02 | 50.65618 | 5.10125 | 33247 ft | 513 kts | 111° |
| 2026-05-03 21:02 | 50.64628 | 5.15540 | 33481 ft | 513 kts | 110° |
| 2026-05-03 21:02 | 50.63667 | 5.20778 | 33701 ft | 513 kts | 110° |
| 2026-05-03 21:03 | 50.62644 | 5.26348 | 33958 ft | 513 kts | 110° |
| 2026-05-03 21:03 | 50.61692 | 5.31517 | 34161 ft | 512 kts | 110° |
| 2026-05-03 21:03 | 50.60701 | 5.36881 | 34441 ft | 510 kts | 110° |
| 2026-05-03 21:03 | 50.59713 | 5.42220 | 34725 ft | 508 kts | 110° |
| 2026-05-03 21:04 | 50.58723 | 5.47552 | 34998 ft | 506 kts | 110° |
| 2026-05-03 21:04 | 50.57735 | 5.52853 | 35247 ft | 505 kts | 110° |
| 2026-05-03 21:04 | 50.56743 | 5.58156 | 35497 ft | 503 kts | 110° |
| 2026-05-03 21:04 | 50.55768 | 5.63355 | 35714 ft | 502 kts | 110° |
| 2026-05-03 21:05 | 50.54765 | 5.68687 | 35935 ft | 501 kts | 110° |
| 2026-05-03 21:05 | 50.53775 | 5.73939 | 36165 ft | 500 kts | 110° |
| 2026-05-03 21:05 | 50.52783 | 5.79185 | 36364 ft | 500 kts | 110° |
| 2026-05-03 21:05 | 50.51793 | 5.84403 | 36561 ft | 499 kts | 110° |
| 2026-05-03 21:06 | 50.50811 | 5.89564 | 36739 ft | 498 kts | 110° |
| 2026-05-03 21:06 | 50.49821 | 5.94759 | 36926 ft | 498 kts | 110° |
| 2026-05-03 21:06 | 50.47816 | 6.05217 | 36963 ft | 502 kts | 110° |
| 2026-05-03 21:07 | 50.45785 | 6.15760 | 36967 ft | 505 kts | 110° |
| 2026-05-03 21:07 | 50.43749 | 6.26288 | 36968 ft | 505 kts | 111° |
| 2026-05-03 21:08 | 50.41840 | 6.36840 | 36969 ft | 508 kts | 104° |
| 2026-05-03 21:08 | 50.40810 | 6.47814 | 36968 ft | 510 kts | 101° |
| 2026-05-03 21:09 | 50.39964 | 6.58868 | 36966 ft | 511 kts | 100° |
| 2026-05-03 21:09 | 50.39133 | 6.69942 | 36975 ft | 512 kts | 100° |
| 2026-05-03 21:10 | 50.38276 | 6.81008 | 36978 ft | 511 kts | 100° |
| 2026-05-03 21:10 | 50.37397 | 6.92083 | 36986 ft | 511 kts | 100° |
| 2026-05-03 21:11 | 50.36515 | 7.03020 | 36990 ft | 509 kts | 100° |
| 2026-05-03 21:11 | 50.35625 | 7.13950 | 36992 ft | 507 kts | 100° |
| 2026-05-03 21:12 | 50.34722 | 7.24887 | 36990 ft | 507 kts | 100° |
| 2026-05-03 21:12 | 50.33813 | 7.35787 | 36992 ft | 507 kts | 100° |
| 2026-05-03 21:13 | 50.32891 | 7.46703 | 36995 ft | 507 kts | 100° |
| 2026-05-03 21:13 | 50.31960 | 7.57621 | 36993 ft | 506 kts | 101° |
| 2026-05-03 21:14 | 50.31017 | 7.68547 | 36994 ft | 506 kts | 101° |
| 2026-05-03 21:14 | 50.30075 | 7.79329 | 36992 ft | 506 kts | 101° |
| 2026-05-03 21:15 | 50.29115 | 7.90217 | 36992 ft | 505 kts | 101° |
| 2026-05-03 21:15 | 50.28188 | 8.01032 | 36993 ft | 504 kts | 100° |
| 2026-05-03 21:16 | 50.27433 | 8.10143 | 36991 ft | 504 kts | 100° |
| 2026-05-03 21:16 | 50.26541 | 8.20777 | 36988 ft | 504 kts | 101° |
| 2026-05-03 21:17 | 50.25608 | 8.31703 | 36977 ft | 504 kts | 101° |
| 2026-05-03 21:17 | 50.24666 | 8.42560 | 36992 ft | 504 kts | 101° |
| 2026-05-03 21:18 | 50.23716 | 8.53382 | 36992 ft | 504 kts | 101° |
| 2026-05-03 21:18 | 50.22759 | 8.64180 | 36988 ft | 504 kts | 101° |
| 2026-05-03 21:19 | 50.21795 | 8.74935 | 36988 ft | 504 kts | 101° |
| 2026-05-03 21:19 | 50.20819 | 8.85714 | 36991 ft | 504 kts | 101° |
| 2026-05-03 21:20 | 50.19834 | 8.96472 | 36989 ft | 504 kts | 101° |
| 2026-05-03 21:20 | 50.18833 | 9.07297 | 36992 ft | 504 kts | 101° |
| 2026-05-03 21:21 | 50.17823 | 9.18104 | 36987 ft | 504 kts | 101° |
| 2026-05-03 21:21 | 50.16807 | 9.28866 | 36994 ft | 504 kts | 101° |
| 2026-05-03 21:22 | 50.15775 | 9.39677 | 36991 ft | 504 kts | 102° |
| 2026-05-03 21:22 | 50.14736 | 9.50463 | 36992 ft | 504 kts | 102° |
| 2026-05-03 21:23 | 50.13686 | 9.61246 | 36992 ft | 503 kts | 102° |
| 2026-05-03 21:23 | 50.12623 | 9.72054 | 36997 ft | 503 kts | 102° |
| 2026-05-03 21:24 | 50.11553 | 9.82835 | 36996 ft | 504 kts | 102° |
| 2026-05-03 21:24 | 50.10470 | 9.93630 | 36980 ft | 504 kts | 102° |
| 2026-05-03 21:25 | 50.09386 | 10.04345 | 36989 ft | 504 kts | 102° |
| 2026-05-03 21:25 | 50.08286 | 10.15112 | 36986 ft | 503 kts | 102° |
| 2026-05-03 21:26 | 50.07440 | 10.25998 | 36990 ft | 505 kts | 94° |
| 2026-05-03 21:26 | 50.07370 | 10.36863 | 36984 ft | 506 kts | 92° |
| 2026-05-03 21:27 | 50.07426 | 10.47816 | 36985 ft | 506 kts | 92° |
| 2026-05-03 21:27 | 50.07486 | 10.58775 | 36974 ft | 506 kts | 92° |
| 2026-05-03 21:28 | 50.07423 | 10.69715 | 36982 ft | 504 kts | 98° |
| 2026-05-03 21:28 | 50.05973 | 10.80280 | 36984 ft | 498 kts | 110° |
| 2026-05-03 21:29 | 50.03873 | 10.90554 | 36983 ft | 498 kts | 111° |
| 2026-05-03 21:29 | 50.01684 | 11.00696 | 36975 ft | 497 kts | 111° |
| 2026-05-03 21:30 | 49.99486 | 11.10877 | 36989 ft | 497 kts | 111° |
| 2026-05-03 21:30 | 49.97294 | 11.21083 | 36998 ft | 497 kts | 111° |
| 2026-05-03 21:31 | 49.95124 | 11.31267 | 36996 ft | 497 kts | 111° |
| 2026-05-03 21:31 | 49.92961 | 11.41464 | 36995 ft | 497 kts | 111° |
| 2026-05-03 21:32 | 49.90985 | 11.51732 | 36996 ft | 495 kts | 108° |
| 2026-05-03 21:32 | 49.89164 | 11.61987 | 36996 ft | 494 kts | 108° |
| 2026-05-03 21:33 | 49.87754 | 11.72470 | 36986 ft | 496 kts | 101° |
| 2026-05-03 21:33 | 49.86775 | 11.83075 | 36988 ft | 497 kts | 100° |
| 2026-05-03 21:34 | 49.85853 | 11.93618 | 36982 ft | 497 kts | 99° |
| 2026-05-03 21:34 | 49.84911 | 12.04309 | 36979 ft | 496 kts | 100° |
| 2026-05-03 21:35 | 49.83963 | 12.14823 | 36979 ft | 496 kts | 100° |
| 2026-05-03 21:35 | 49.82993 | 12.25407 | 36979 ft | 496 kts | 100° |
| 2026-05-03 21:36 | 49.82021 | 12.36004 | 36979 ft | 497 kts | 100° |
| 2026-05-03 21:36 | 49.80638 | 12.46439 | 36977 ft | 494 kts | 111° |
| 2026-05-03 21:37 | 49.77875 | 12.56114 | 36976 ft | 491 kts | 118° |
| 2026-05-03 21:37 | 49.74779 | 12.65568 | 36968 ft | 491 kts | 120° |
| 2026-05-03 21:38 | 49.71639 | 12.74959 | 36947 ft | 491 kts | 119° |
| 2026-05-03 21:38 | 49.68500 | 12.84386 | 36963 ft | 494 kts | 119° |
| 2026-05-03 21:39 | 49.65367 | 12.93822 | 36955 ft | 494 kts | 119° |
| 2026-05-03 21:39 | 49.62222 | 13.03273 | 36958 ft | 494 kts | 119° |
| 2026-05-03 21:40 | 49.59071 | 13.12705 | 36964 ft | 494 kts | 119° |
| 2026-05-03 21:40 | 49.55937 | 13.22048 | 36966 ft | 494 kts | 119° |
| 2026-05-03 21:41 | 49.52771 | 13.31452 | 36963 ft | 494 kts | 120° |
| 2026-05-03 21:41 | 49.49602 | 13.40830 | 36962 ft | 494 kts | 120° |
| 2026-05-03 21:42 | 49.46425 | 13.50195 | 36958 ft | 494 kts | 120° |
| 2026-05-03 21:42 | 49.43255 | 13.59503 | 36951 ft | 493 kts | 119° |
| 2026-05-03 21:43 | 49.40051 | 13.68882 | 36976 ft | 493 kts | 119° |
| 2026-05-03 21:43 | 49.36858 | 13.78193 | 36968 ft | 493 kts | 119° |
| 2026-05-03 21:44 | 49.33680 | 13.87428 | 36954 ft | 493 kts | 119° |
| 2026-05-03 21:44 | 49.30466 | 13.96734 | 36969 ft | 492 kts | 119° |
| 2026-05-03 21:45 | 49.27258 | 14.05985 | 36973 ft | 492 kts | 119° |
| 2026-05-03 21:45 | 49.24040 | 14.15234 | 36974 ft | 491 kts | 119° |
| 2026-05-03 21:46 | 49.20819 | 14.24456 | 36973 ft | 491 kts | 119° |
| 2026-05-03 21:46 | 49.17609 | 14.33614 | 36976 ft | 492 kts | 119° |
| 2026-05-03 21:47 | 49.14351 | 14.42879 | 36969 ft | 492 kts | 119° |
| 2026-05-03 21:47 | 49.11119 | 14.52036 | 36981 ft | 493 kts | 119° |
| 2026-05-03 21:48 | 49.07863 | 14.61230 | 36981 ft | 493 kts | 119° |
| 2026-05-03 21:48 | 49.04591 | 14.70432 | 36979 ft | 493 kts | 119° |
| 2026-05-03 21:49 | 49.01309 | 14.79632 | 36980 ft | 494 kts | 119° |
| 2026-05-03 21:49 | 48.98019 | 14.88822 | 36982 ft | 494 kts | 119° |
| 2026-05-03 21:50 | 48.94723 | 14.97997 | 36992 ft | 494 kts | 119° |
| 2026-05-03 21:50 | 48.91421 | 15.07158 | 37004 ft | 494 kts | 119° |
| 2026-05-03 21:51 | 48.88430 | 15.16555 | 37008 ft | 494 kts | 114° |
| 2026-05-03 21:51 | 48.85706 | 15.26144 | 37006 ft | 494 kts | 113° |
| 2026-05-03 21:52 | 48.83032 | 15.35692 | 37012 ft | 494 kts | 113° |
| 2026-05-03 21:52 | 48.80329 | 15.45292 | 37020 ft | 494 kts | 113° |
| 2026-05-03 21:53 | 48.77611 | 15.54873 | 37031 ft | 495 kts | 113° |
| 2026-05-03 21:53 | 48.74877 | 15.64459 | 37031 ft | 495 kts | 113° |
| 2026-05-03 21:54 | 48.72136 | 15.74030 | 37024 ft | 495 kts | 113° |
| 2026-05-03 21:54 | 48.69391 | 15.83582 | 37029 ft | 495 kts | 113° |
| 2026-05-03 21:55 | 48.66629 | 15.93154 | 37028 ft | 495 kts | 113° |
| 2026-05-03 21:55 | 48.63864 | 16.02694 | 37037 ft | 496 kts | 113° |
| 2026-05-03 21:56 | 48.61088 | 16.12242 | 37034 ft | 495 kts | 113° |
| 2026-05-03 21:56 | 48.58366 | 16.21562 | 37043 ft | 495 kts | 113° |
| 2026-05-03 21:57 | 48.55581 | 16.31062 | 37048 ft | 495 kts | 113° |
| 2026-05-03 21:57 | 48.52784 | 16.40568 | 37056 ft | 496 kts | 113° |
| 2026-05-03 21:58 | 48.49982 | 16.50052 | 37061 ft | 496 kts | 113° |
| 2026-05-03 21:58 | 48.47167 | 16.59545 | 37052 ft | 495 kts | 113° |
| 2026-05-03 21:59 | 48.44349 | 16.69012 | 37071 ft | 495 kts | 113° |
| 2026-05-03 21:59 | 48.41524 | 16.78462 | 37077 ft | 494 kts | 113° |
| 2026-05-03 22:00 | 48.38692 | 16.87903 | 37080 ft | 495 kts | 113° |
| 2026-05-03 22:00 | 48.36335 | 16.95733 | 37090 ft | 494 kts | 113° |
| 2026-05-03 22:01 | 48.33040 | 17.06634 | 37089 ft | 495 kts | 113° |
| 2026-05-03 22:01 | 48.30185 | 17.16041 | 37100 ft | 495 kts | 113° |
| 2026-05-03 22:02 | 48.27786 | 17.23920 | 37104 ft | 494 kts | 113° |
| 2026-05-03 22:02 | 48.24924 | 17.33287 | 37105 ft | 495 kts | 114° |
| 2026-05-03 22:03 | 48.22063 | 17.42612 | 37104 ft | 494 kts | 113° |
| 2026-05-03 22:03 | 48.19184 | 17.51963 | 37104 ft | 494 kts | 113° |
| 2026-05-03 22:04 | 48.16301 | 17.61291 | 37108 ft | 493 kts | 113° |
| 2026-05-03 22:04 | 48.13408 | 17.70618 | 37114 ft | 494 kts | 114° |
| 2026-05-03 22:05 | 48.10503 | 17.79947 | 37117 ft | 494 kts | 113° |
| 2026-05-03 22:05 | 48.07591 | 17.89262 | 37116 ft | 494 kts | 113° |
| 2026-05-03 22:06 | 48.04678 | 17.98550 | 37126 ft | 494 kts | 113° |
| 2026-05-03 22:06 | 48.01746 | 18.07864 | 37128 ft | 494 kts | 113° |
| 2026-05-03 22:07 | 47.98813 | 18.17142 | 37141 ft | 494 kts | 113° |
| 2026-05-03 22:07 | 47.95874 | 18.26408 | 37121 ft | 494 kts | 113° |
| 2026-05-03 22:08 | 47.92927 | 18.35666 | 37126 ft | 494 kts | 113° |
| 2026-05-03 22:08 | 47.89992 | 18.44854 | 37153 ft | 494 kts | 113° |
| 2026-05-03 22:09 | 47.87028 | 18.54095 | 37143 ft | 493 kts | 113° |
| 2026-05-03 22:10 | 47.82585 | 18.67890 | 37147 ft | 493 kts | 113° |
| 2026-05-03 22:10 | 47.79572 | 18.77066 | 37157 ft | 493 kts | 116° |
| 2026-05-03 22:11 | 47.76163 | 18.85913 | 37174 ft | 494 kts | 118° |
| 2026-05-03 22:11 | 47.72625 | 18.94692 | 37160 ft | 493 kts | 118° |
| 2026-05-03 22:12 | 47.69148 | 19.03466 | 37158 ft | 493 kts | 117° |
| 2026-05-03 22:12 | 47.65699 | 19.12283 | 37158 ft | 494 kts | 117° |
| 2026-05-03 22:13 | 47.62261 | 19.21077 | 37175 ft | 494 kts | 117° |
| 2026-05-03 22:13 | 47.58835 | 19.29806 | 37159 ft | 492 kts | 117° |
| 2026-05-03 22:14 | 47.55390 | 19.38551 | 37157 ft | 491 kts | 117° |
| 2026-05-03 22:14 | 47.51934 | 19.47296 | 37157 ft | 492 kts | 117° |
| 2026-05-03 22:15 | 47.48473 | 19.56021 | 37177 ft | 492 kts | 117° |
| 2026-05-03 22:15 | 47.45014 | 19.64715 | 37158 ft | 490 kts | 117° |
| 2026-05-03 22:16 | 47.41560 | 19.73370 | 37163 ft | 489 kts | 117° |
| 2026-05-03 22:16 | 47.38087 | 19.82043 | 37157 ft | 490 kts | 117° |
| 2026-05-03 22:17 | 47.34617 | 19.90683 | 37170 ft | 490 kts | 117° |
| 2026-05-03 22:17 | 47.31141 | 19.99307 | 37158 ft | 489 kts | 117° |
| 2026-05-03 22:18 | 47.27660 | 20.07918 | 37158 ft | 489 kts | 117° |
| 2026-05-03 22:18 | 47.24166 | 20.16533 | 37157 ft | 490 kts | 117° |
| 2026-05-03 22:19 | 47.20672 | 20.25122 | 37166 ft | 490 kts | 117° |
| 2026-05-03 22:19 | 47.17168 | 20.33705 | 37157 ft | 489 kts | 117° |
| 2026-05-03 22:20 | 47.13664 | 20.42264 | 37157 ft | 489 kts | 117° |
| 2026-05-03 22:20 | 47.10151 | 20.50817 | 37157 ft | 489 kts | 118° |
| 2026-05-03 22:21 | 47.06657 | 20.59299 | 37157 ft | 489 kts | 118° |
| 2026-05-03 22:21 | 47.03128 | 20.67839 | 37157 ft | 489 kts | 118° |
| 2026-05-03 22:22 | 46.99598 | 20.76354 | 37162 ft | 489 kts | 118° |
| 2026-05-03 22:22 | 46.96061 | 20.84859 | 37161 ft | 489 kts | 118° |
| 2026-05-03 22:23 | 46.92516 | 20.93356 | 37143 ft | 488 kts | 118° |
| 2026-05-03 22:23 | 46.88995 | 21.01771 | 37161 ft | 488 kts | 118° |
| 2026-05-03 22:24 | 46.85440 | 21.10241 | 37164 ft | 488 kts | 118° |
| 2026-05-03 22:24 | 46.81879 | 21.18701 | 37162 ft | 488 kts | 118° |
| 2026-05-03 22:25 | 46.78320 | 21.27129 | 37155 ft | 487 kts | 118° |
| 2026-05-03 22:25 | 46.74783 | 21.35477 | 37157 ft | 486 kts | 118° |
| 2026-05-03 22:26 | 46.71222 | 21.43860 | 37155 ft | 486 kts | 118° |
| 2026-05-03 22:26 | 46.67671 | 21.52239 | 37157 ft | 486 kts | 117° |
| 2026-05-03 22:27 | 46.64452 | 21.60852 | 37160 ft | 483 kts | 114° |
| 2026-05-03 22:27 | 46.61364 | 21.69537 | 37162 ft | 483 kts | 114° |
| 2026-05-03 22:28 | 46.58223 | 21.78190 | 37165 ft | 483 kts | 115° |
| 2026-05-03 22:28 | 46.55041 | 21.86788 | 37166 ft | 484 kts | 115° |
| 2026-05-03 22:29 | 46.51852 | 21.95332 | 37169 ft | 483 kts | 115° |
| 2026-05-03 22:29 | 46.48627 | 22.03948 | 37169 ft | 483 kts | 115° |
| 2026-05-03 22:30 | 46.45438 | 22.12447 | 37177 ft | 483 kts | 115° |
| 2026-05-03 22:30 | 46.42214 | 22.21018 | 37179 ft | 483 kts | 115° |
| 2026-05-03 22:31 | 46.38990 | 22.29560 | 37180 ft | 482 kts | 115° |
| 2026-05-03 22:31 | 46.35773 | 22.38055 | 37190 ft | 481 kts | 115° |
| 2026-05-03 22:32 | 46.32552 | 22.46536 | 37190 ft | 481 kts | 115° |
| 2026-05-03 22:32 | 46.29341 | 22.54965 | 37189 ft | 481 kts | 115° |
| 2026-05-03 22:33 | 46.26085 | 22.63487 | 37199 ft | 482 kts | 115° |
| 2026-05-03 22:33 | 46.22856 | 22.71911 | 37201 ft | 482 kts | 115° |
| 2026-05-03 22:34 | 46.19604 | 22.80369 | 37203 ft | 482 kts | 115° |
| 2026-05-03 22:34 | 46.16339 | 22.88831 | 37222 ft | 482 kts | 115° |
| 2026-05-03 22:35 | 46.13077 | 22.97261 | 37201 ft | 481 kts | 115° |
| 2026-05-03 22:35 | 46.09813 | 23.05668 | 37202 ft | 480 kts | 115° |
| 2026-05-03 22:36 | 46.06544 | 23.14065 | 37203 ft | 480 kts | 115° |
| 2026-05-03 22:36 | 46.03270 | 23.22449 | 37218 ft | 480 kts | 115° |
| 2026-05-03 22:37 | 45.99999 | 23.30799 | 37203 ft | 479 kts | 115° |
| 2026-05-03 22:37 | 45.96713 | 23.39161 | 37203 ft | 480 kts | 115° |
| 2026-05-03 22:38 | 45.93425 | 23.47508 | 37202 ft | 480 kts | 115° |
| 2026-05-03 22:38 | 45.90127 | 23.55851 | 37204 ft | 480 kts | 115° |
| 2026-05-03 22:39 | 45.86853 | 23.64106 | 37195 ft | 478 kts | 115° |
| 2026-05-03 22:39 | 45.83555 | 23.72401 | 37185 ft | 479 kts | 115° |
| 2026-05-03 22:40 | 45.80253 | 23.80680 | 37175 ft | 479 kts | 115° |
| 2026-05-03 22:40 | 45.76939 | 23.88962 | 37167 ft | 479 kts | 115° |
| 2026-05-03 22:41 | 45.73620 | 23.97233 | 37156 ft | 479 kts | 115° |
| 2026-05-03 22:41 | 45.70298 | 24.05489 | 37158 ft | 479 kts | 115° |
| 2026-05-03 22:42 | 45.66962 | 24.13750 | 37216 ft | 479 kts | 115° |
| 2026-05-03 22:42 | 45.63631 | 24.21979 | 37217 ft | 479 kts | 115° |
| 2026-05-03 22:43 | 45.60289 | 24.30210 | 37212 ft | 479 kts | 116° |
| 2026-05-03 22:43 | 45.56939 | 24.38437 | 37209 ft | 479 kts | 116° |
| 2026-05-03 22:44 | 45.53619 | 24.46566 | 37203 ft | 478 kts | 116° |
| 2026-05-03 22:44 | 45.50249 | 24.54791 | 37196 ft | 481 kts | 115° |
| 2026-05-03 22:45 | 45.46855 | 24.63059 | 37195 ft | 483 kts | 115° |
| 2026-05-03 22:45 | 45.43451 | 24.71314 | 37190 ft | 483 kts | 115° |
| 2026-05-03 22:46 | 45.40046 | 24.79543 | 37195 ft | 482 kts | 116° |
| 2026-05-03 22:46 | 45.36639 | 24.87765 | 37182 ft | 483 kts | 116° |
| 2026-05-03 22:47 | 45.33217 | 24.95995 | 37190 ft | 483 kts | 116° |
| 2026-05-03 22:47 | 45.30373 | 25.02820 | 37189 ft | 483 kts | 116° |
| 2026-05-03 22:48 | 45.26943 | 25.11026 | 37192 ft | 483 kts | 116° |
| 2026-05-03 22:48 | 45.22938 | 25.20579 | 37180 ft | 484 kts | 117° |
| 2026-05-03 22:49 | 45.19495 | 25.28766 | 37181 ft | 484 kts | 117° |
| 2026-05-03 22:49 | 45.16596 | 25.35638 | 37181 ft | 484 kts | 117° |
| 2026-05-03 22:50 | 45.13136 | 25.43819 | 37177 ft | 484 kts | 117° |
| 2026-05-03 22:50 | 45.09673 | 25.51982 | 37172 ft | 483 kts | 117° |
| 2026-05-03 22:51 | 45.06207 | 25.60133 | 37172 ft | 483 kts | 118° |
| 2026-05-03 22:51 | 45.02734 | 25.68272 | 37173 ft | 483 kts | 117° |
| 2026-05-03 22:52 | 44.99281 | 25.76343 | 37167 ft | 482 kts | 118° |
| 2026-05-03 22:52 | 44.95812 | 25.84430 | 37167 ft | 482 kts | 118° |
| 2026-05-03 22:53 | 44.92330 | 25.92523 | 37159 ft | 482 kts | 118° |
| 2026-05-03 22:53 | 44.88842 | 26.00608 | 37166 ft | 482 kts | 119° |
| 2026-05-03 22:54 | 44.85350 | 26.08680 | 37149 ft | 482 kts | 119° |
| 2026-05-03 22:54 | 44.81858 | 26.16727 | 37141 ft | 482 kts | 119° |
| 2026-05-03 22:55 | 44.78351 | 26.24784 | 37137 ft | 482 kts | 119° |
| 2026-05-03 22:55 | 44.74851 | 26.32806 | 37146 ft | 481 kts | 120° |
| 2026-05-03 22:56 | 44.71359 | 26.40785 | 37137 ft | 481 kts | 120° |
| 2026-05-03 22:56 | 44.67851 | 26.48778 | 37132 ft | 481 kts | 120° |
| 2026-05-03 22:57 | 44.64331 | 26.56776 | 37136 ft | 481 kts | 120° |
| 2026-05-03 22:57 | 44.60807 | 26.64762 | 37134 ft | 480 kts | 120° |
| 2026-05-03 22:58 | 44.57282 | 26.72726 | 37130 ft | 479 kts | 120° |
| 2026-05-03 22:58 | 44.53756 | 26.80671 | 37130 ft | 480 kts | 120° |
| 2026-05-03 22:59 | 44.50216 | 26.88627 | 37127 ft | 481 kts | 120° |
| 2026-05-03 22:59 | 44.46668 | 26.96578 | 37129 ft | 481 kts | 120° |
| 2026-05-03 23:00 | 44.43119 | 27.04510 | 37127 ft | 481 kts | 120° |
| 2026-05-03 23:00 | 44.39583 | 27.12390 | 37127 ft | 481 kts | 120° |
| 2026-05-03 23:01 | 44.36022 | 27.20304 | 37129 ft | 480 kts | 121° |
| 2026-05-03 23:01 | 44.32463 | 27.28191 | 37126 ft | 479 kts | 121° |
| 2026-05-03 23:02 | 44.28907 | 27.36051 | 37118 ft | 479 kts | 121° |
| 2026-05-03 23:02 | 44.25346 | 27.43901 | 37123 ft | 479 kts | 121° |
| 2026-05-03 23:03 | 44.21776 | 27.51751 | 37117 ft | 480 kts | 121° |
| 2026-05-03 23:03 | 44.18187 | 27.59618 | 37114 ft | 481 kts | 121° |
| 2026-05-03 23:04 | 44.14591 | 27.67480 | 37115 ft | 481 kts | 121° |
| 2026-05-03 23:04 | 44.10992 | 27.75329 | 37114 ft | 481 kts | 122° |
| 2026-05-03 23:05 | 44.07388 | 27.83166 | 37117 ft | 481 kts | 122° |
| 2026-05-03 23:05 | 44.03765 | 27.91023 | 37108 ft | 483 kts | 122° |
| 2026-05-03 23:06 | 44.00165 | 27.98809 | 37097 ft | 483 kts | 122° |
| 2026-05-03 23:06 | 43.96528 | 28.06658 | 37103 ft | 480 kts | 122° |
| 2026-05-03 23:07 | 43.92932 | 28.14393 | 37098 ft | 475 kts | 122° |
| 2026-05-03 23:07 | 43.89345 | 28.22087 | 37089 ft | 475 kts | 122° |
| 2026-05-03 23:08 | 43.85756 | 28.29768 | 37081 ft | 475 kts | 122° |
| 2026-05-03 23:08 | 43.82159 | 28.37445 | 37084 ft | 474 kts | 123° |
| 2026-05-03 23:09 | 43.78572 | 28.45082 | 37084 ft | 473 kts | 123° |
| 2026-05-03 23:09 | 43.74977 | 28.52715 | 37084 ft | 473 kts | 123° |
| 2026-05-03 23:10 | 43.71378 | 28.60338 | 37083 ft | 474 kts | 123° |
| 2026-05-03 23:10 | 43.67760 | 28.67980 | 37083 ft | 475 kts | 123° |
| 2026-05-03 23:11 | 43.64133 | 28.75618 | 37083 ft | 475 kts | 123° |
| 2026-05-03 23:11 | 43.60511 | 28.83228 | 37084 ft | 475 kts | 123° |
| 2026-05-03 23:12 | 43.56880 | 28.90838 | 37080 ft | 473 kts | 124° |
| 2026-05-03 23:12 | 43.53252 | 28.98422 | 37066 ft | 474 kts | 124° |
| 2026-05-03 23:13 | 43.49620 | 29.05992 | 37069 ft | 473 kts | 124° |
| 2026-05-03 23:13 | 43.46005 | 29.13511 | 37065 ft | 475 kts | 124° |
| 2026-05-03 23:14 | 43.42356 | 29.21079 | 37051 ft | 473 kts | 124° |
| 2026-05-03 23:14 | 43.38708 | 29.28625 | 37047 ft | 475 kts | 125° |
| 2026-05-03 23:15 | 43.35054 | 29.36164 | 37046 ft | 473 kts | 124° |
| 2026-05-03 23:15 | 43.31398 | 29.43691 | 37041 ft | 473 kts | 125° |
| 2026-05-03 23:16 | 43.27749 | 29.51182 | 37032 ft | 471 kts | 125° |
| 2026-05-03 23:16 | 43.24097 | 29.58659 | 37035 ft | 473 kts | 125° |
| 2026-05-03 23:17 | 43.20435 | 29.66139 | 37026 ft | 472 kts | 125° |
| 2026-05-03 23:17 | 43.16769 | 29.73608 | 37018 ft | 472 kts | 125° |
| 2026-05-03 23:18 | 43.13096 | 29.81073 | 37016 ft | 472 kts | 125° |
| 2026-05-03 23:18 | 43.09451 | 29.88461 | 37022 ft | 472 kts | 125° |
| 2026-05-03 23:19 | 43.05763 | 29.95920 | 37017 ft | 472 kts | 126° |
| 2026-05-03 23:19 | 43.02093 | 30.03323 | 37010 ft | 470 kts | 125° |
| 2026-05-03 23:20 | 42.98412 | 30.10730 | 37006 ft | 471 kts | 126° |
| 2026-05-03 23:20 | 42.94734 | 30.18111 | 36995 ft | 470 kts | 126° |
| 2026-05-03 23:21 | 42.91047 | 30.25493 | 36990 ft | 469 kts | 126° |
| 2026-05-03 23:21 | 42.87397 | 30.32784 | 36970 ft | 468 kts | 126° |
| 2026-05-03 23:22 | 42.81872 | 30.43783 | 36971 ft | 467 kts | 126° |
| 2026-05-03 23:22 | 42.78200 | 30.51073 | 36972 ft | 467 kts | 126° |
| 2026-05-03 23:23 | 42.74871 | 30.58673 | 36965 ft | 469 kts | 115° |
| 2026-05-03 23:23 | 42.73108 | 30.67217 | 36961 ft | 473 kts | 102° |
| 2026-05-03 23:24 | 42.72144 | 30.76089 | 36956 ft | 474 kts | 100° |
| 2026-05-03 23:24 | 42.71290 | 30.84958 | 36951 ft | 472 kts | 100° |
| 2026-05-03 23:25 | 42.70413 | 30.93815 | 36952 ft | 472 kts | 101° |
| 2026-05-03 23:25 | 42.69505 | 31.02653 | 36947 ft | 472 kts | 101° |
| 2026-05-03 23:26 | 42.68581 | 31.11490 | 36940 ft | 472 kts | 101° |
| 2026-05-03 23:26 | 42.67660 | 31.20238 | 36940 ft | 470 kts | 101° |
| 2026-05-03 23:27 | 42.66728 | 31.29031 | 36936 ft | 470 kts | 101° |
| 2026-05-03 23:27 | 42.65791 | 31.37809 | 36925 ft | 470 kts | 101° |
| 2026-05-03 23:28 | 42.64849 | 31.46575 | 36917 ft | 468 kts | 101° |
| 2026-05-03 23:28 | 42.63903 | 31.55304 | 36922 ft | 466 kts | 101° |
| 2026-05-03 23:29 | 42.62954 | 31.63997 | 36922 ft | 466 kts | 101° |
| 2026-05-03 23:29 | 42.61997 | 31.72700 | 36919 ft | 466 kts | 101° |
| 2026-05-03 23:30 | 42.61035 | 31.81394 | 36919 ft | 466 kts | 101° |
| 2026-05-03 23:30 | 42.60070 | 31.90046 | 36913 ft | 465 kts | 101° |
| 2026-05-03 23:31 | 42.59090 | 31.98775 | 36971 ft | 465 kts | 101° |
| 2026-05-03 23:31 | 42.58606 | 32.03067 | 37165 ft | 465 kts | 101° |
| 2026-05-03 23:31 | 42.58119 | 32.07474 | 37292 ft | 466 kts | 101° |
| 2026-05-03 23:32 | 42.57634 | 32.11828 | 37412 ft | 467 kts | 101° |
| 2026-05-03 23:32 | 42.57145 | 32.16129 | 37527 ft | 468 kts | 101° |
| 2026-05-03 23:32 | 42.56642 | 32.20505 | 37635 ft | 469 kts | 101° |
| 2026-05-03 23:32 | 42.56136 | 32.24880 | 37766 ft | 470 kts | 101° |
| 2026-05-03 23:33 | 42.55627 | 32.29269 | 37882 ft | 471 kts | 101° |
| 2026-05-03 23:33 | 42.55118 | 32.33661 | 38012 ft | 471 kts | 101° |
| 2026-05-03 23:33 | 42.54093 | 32.42459 | 38173 ft | 474 kts | 101° |
| 2026-05-03 23:34 | 42.53576 | 32.46883 | 38309 ft | 474 kts | 101° |
| 2026-05-03 23:34 | 42.53057 | 32.51309 | 38361 ft | 476 kts | 101° |
| 2026-05-03 23:34 | 42.52538 | 32.55721 | 38518 ft | 475 kts | 102° |
| 2026-05-03 23:34 | 42.52184 | 32.58723 | 38556 ft | 477 kts | 101° |
| 2026-05-03 23:35 | 42.51134 | 32.67581 | 38689 ft | 478 kts | 102° |
| 2026-05-03 23:35 | 42.50071 | 32.76491 | 38824 ft | 480 kts | 102° |
| 2026-05-03 23:36 | 42.48996 | 32.85429 | 38870 ft | 483 kts | 102° |
| 2026-05-03 23:36 | 42.47909 | 32.94416 | 38869 ft | 482 kts | 102° |
| 2026-05-03 23:37 | 42.46817 | 33.03387 | 38863 ft | 482 kts | 102° |
| 2026-05-03 23:37 | 42.45721 | 33.12333 | 38863 ft | 482 kts | 102° |
| 2026-05-03 23:38 | 42.44615 | 33.21287 | 38862 ft | 482 kts | 102° |
| 2026-05-03 23:38 | 42.43499 | 33.30240 | 38855 ft | 482 kts | 102° |
| 2026-05-03 23:39 | 42.42377 | 33.39184 | 38856 ft | 485 kts | 102° |
| 2026-05-03 23:39 | 42.41246 | 33.48194 | 38844 ft | 485 kts | 102° |
| 2026-05-03 23:40 | 42.40105 | 33.57192 | 38858 ft | 484 kts | 102° |
| 2026-05-03 23:40 | 42.38956 | 33.66171 | 38854 ft | 484 kts | 102° |
| 2026-05-03 23:41 | 42.37805 | 33.75126 | 38846 ft | 484 kts | 102° |
| 2026-05-03 23:41 | 42.36644 | 33.84099 | 38842 ft | 484 kts | 103° |
| 2026-05-03 23:42 | 42.35483 | 33.93054 | 38844 ft | 483 kts | 103° |
| 2026-05-03 23:42 | 42.34317 | 34.02002 | 38839 ft | 483 kts | 103° |
| 2026-05-03 23:43 | 42.33140 | 34.10950 | 38839 ft | 483 kts | 103° |
| 2026-05-03 23:43 | 42.31967 | 34.19824 | 38832 ft | 483 kts | 103° |
| 2026-05-03 23:44 | 42.30781 | 34.28744 | 38834 ft | 483 kts | 103° |
| 2026-05-03 23:44 | 42.29588 | 34.37662 | 38829 ft | 483 kts | 103° |
| 2026-05-03 23:45 | 42.28381 | 34.46607 | 38813 ft | 484 kts | 103° |
| 2026-05-03 23:45 | 42.27168 | 34.55549 | 38822 ft | 484 kts | 103° |
| 2026-05-03 23:46 | 42.25951 | 34.64477 | 38822 ft | 484 kts | 103° |
| 2026-05-03 23:46 | 42.24726 | 34.73412 | 38819 ft | 484 kts | 104° |
| 2026-05-03 23:47 | 42.23490 | 34.82377 | 38823 ft | 485 kts | 104° |
| 2026-05-03 23:47 | 42.22246 | 34.91327 | 38821 ft | 485 kts | 104° |
| 2026-05-03 23:48 | 42.20989 | 35.00272 | 38815 ft | 485 kts | 104° |
| 2026-05-03 23:48 | 42.19735 | 35.09155 | 38809 ft | 485 kts | 104° |
| 2026-05-03 23:49 | 42.18468 | 35.18089 | 38811 ft | 485 kts | 104° |
| 2026-05-03 23:49 | 42.17195 | 35.27012 | 38804 ft | 485 kts | 104° |
| 2026-05-03 23:50 | 42.15916 | 35.35934 | 38803 ft | 485 kts | 104° |
| 2026-05-03 23:50 | 42.14630 | 35.44860 | 38800 ft | 485 kts | 104° |
| 2026-05-03 23:51 | 42.13341 | 35.53773 | 38811 ft | 484 kts | 105° |
| 2026-05-03 23:51 | 42.12043 | 35.62684 | 38789 ft | 484 kts | 105° |
| 2026-05-03 23:52 | 42.10748 | 35.71521 | 38787 ft | 484 kts | 105° |
| 2026-05-03 23:52 | 42.09438 | 35.80422 | 38793 ft | 484 kts | 105° |
| 2026-05-03 23:53 | 42.08126 | 35.89284 | 38794 ft | 483 kts | 105° |
| 2026-05-03 23:53 | 42.06806 | 35.98147 | 38791 ft | 483 kts | 105° |
| 2026-05-03 23:54 | 42.05477 | 36.07022 | 38791 ft | 483 kts | 105° |
| 2026-05-03 23:54 | 42.04144 | 36.15881 | 38789 ft | 483 kts | 105° |
| 2026-05-03 23:55 | 42.02812 | 36.24678 | 38790 ft | 483 kts | 105° |
| 2026-05-03 23:55 | 42.01464 | 36.33531 | 38788 ft | 483 kts | 105° |
| 2026-05-03 23:56 | 42.00109 | 36.42387 | 38793 ft | 483 kts | 105° |
| 2026-05-03 23:56 | 41.98748 | 36.51236 | 38787 ft | 483 kts | 106° |
| 2026-05-03 23:57 | 41.97379 | 36.60082 | 38793 ft | 483 kts | 106° |
| 2026-05-03 23:57 | 41.96002 | 36.68937 | 38792 ft | 483 kts | 106° |
| 2026-05-03 23:58 | 41.94622 | 36.77761 | 38790 ft | 483 kts | 106° |
| 2026-05-03 23:58 | 41.93232 | 36.86606 | 38787 ft | 484 kts | 106° |
| 2026-05-03 23:59 | 41.91833 | 36.95455 | 38785 ft | 484 kts | 106° |
| 2026-05-03 23:59 | 41.90296 | 37.04237 | 38786 ft | 481 kts | 112° |
| 2026-05-04 00:00 | 41.87901 | 37.12566 | 38784 ft | 478 kts | 116° |
| 2026-05-04 00:00 | 41.85323 | 37.20787 | 38785 ft | 478 kts | 117° |
| 2026-05-04 00:01 | 41.82729 | 37.28929 | 38785 ft | 478 kts | 117° |
| 2026-05-04 00:01 | 41.80117 | 37.37141 | 38785 ft | 478 kts | 117° |
| 2026-05-04 00:02 | 41.77511 | 37.45349 | 38785 ft | 478 kts | 117° |
| 2026-05-04 00:02 | 41.74915 | 37.53508 | 38785 ft | 477 kts | 118° |
| 2026-05-04 00:03 | 41.72302 | 37.61695 | 38788 ft | 477 kts | 118° |
| 2026-05-04 00:03 | 41.69693 | 37.69848 | 38785 ft | 477 kts | 118° |
| 2026-05-04 00:04 | 41.67073 | 37.78012 | 38784 ft | 477 kts | 118° |
| 2026-05-04 00:04 | 41.64445 | 37.86170 | 38785 ft | 477 kts | 118° |
| 2026-05-04 00:05 | 41.61815 | 37.94314 | 38782 ft | 477 kts | 118° |
| 2026-05-04 00:05 | 41.59177 | 38.02459 | 38776 ft | 478 kts | 118° |
| 2026-05-04 00:06 | 41.56525 | 38.10620 | 38783 ft | 479 kts | 118° |
| 2026-05-04 00:06 | 41.53869 | 38.18771 | 38785 ft | 479 kts | 118° |
| 2026-05-04 00:07 | 41.51204 | 38.26929 | 38786 ft | 479 kts | 118° |
| 2026-05-04 00:07 | 41.48547 | 38.35033 | 38780 ft | 480 kts | 118° |
| 2026-05-04 00:08 | 41.45867 | 38.43186 | 38779 ft | 480 kts | 118° |
| 2026-05-04 00:08 | 41.43181 | 38.51333 | 38779 ft | 480 kts | 119° |
| 2026-05-04 00:09 | 41.40490 | 38.59471 | 38775 ft | 480 kts | 119° |
| 2026-05-04 00:09 | 41.37798 | 38.67588 | 38781 ft | 480 kts | 119° |
| 2026-05-04 00:10 | 41.35094 | 38.75717 | 38778 ft | 480 kts | 119° |
| 2026-05-04 00:10 | 41.32412 | 38.83799 | 38777 ft | 480 kts | 118° |
| 2026-05-04 00:11 | 41.29750 | 38.91954 | 38778 ft | 480 kts | 118° |
| 2026-05-04 00:11 | 41.27089 | 39.00104 | 38774 ft | 480 kts | 118° |
| 2026-05-04 00:12 | 41.24413 | 39.08252 | 38777 ft | 480 kts | 118° |
| 2026-05-04 00:12 | 41.21733 | 39.16376 | 38777 ft | 480 kts | 119° |
| 2026-05-04 00:13 | 41.19001 | 39.24438 | 38788 ft | 478 kts | 120° |
| 2026-05-04 00:13 | 41.16175 | 39.32442 | 38787 ft | 478 kts | 120° |
| 2026-05-04 00:14 | 41.13367 | 39.40381 | 38782 ft | 478 kts | 120° |
| 2026-05-04 00:14 | 41.10545 | 39.48394 | 38777 ft | 478 kts | 120° |
| 2026-05-04 00:15 | 41.07731 | 39.56385 | 38780 ft | 478 kts | 120° |
| 2026-05-04 00:15 | 41.04915 | 39.64366 | 38777 ft | 478 kts | 120° |
| 2026-05-04 00:16 | 41.02088 | 39.72350 | 38771 ft | 479 kts | 120° |
| 2026-05-04 00:16 | 40.99871 | 39.80648 | 38774 ft | 489 kts | 106° |
| 2026-05-04 00:17 | 40.99226 | 39.89738 | 38774 ft | 497 kts | 97° |
| 2026-05-04 00:17 | 40.99010 | 39.98852 | 38772 ft | 498 kts | 97° |
| 2026-05-04 00:18 | 40.98831 | 40.08039 | 38767 ft | 499 kts | 97° |
| 2026-05-04 00:18 | 40.98617 | 40.17218 | 38767 ft | 500 kts | 97° |
| 2026-05-04 00:19 | 40.98382 | 40.26410 | 38765 ft | 499 kts | 97° |
| 2026-05-04 00:19 | 40.98126 | 40.35599 | 38779 ft | 499 kts | 97° |
| 2026-05-04 00:20 | 40.97861 | 40.44786 | 38756 ft | 499 kts | 97° |
| 2026-05-04 00:20 | 40.97591 | 40.53981 | 38765 ft | 501 kts | 97° |
| 2026-05-04 00:21 | 40.97317 | 40.63150 | 38763 ft | 502 kts | 97° |
| 2026-05-04 00:21 | 40.97032 | 40.72377 | 38762 ft | 501 kts | 97° |
| 2026-05-04 00:22 | 40.96790 | 40.80110 | 38763 ft | 502 kts | 97° |
| 2026-05-04 00:22 | 40.96498 | 40.89249 | 38764 ft | 502 kts | 97° |
| 2026-05-04 00:23 | 40.96199 | 40.98492 | 38772 ft | 502 kts | 97° |
| 2026-05-04 00:23 | 40.95884 | 41.07716 | 38765 ft | 502 kts | 97° |
| 2026-05-04 00:24 | 40.95561 | 41.16950 | 38774 ft | 502 kts | 97° |
| 2026-05-04 00:24 | 40.95234 | 41.26186 | 38769 ft | 502 kts | 98° |
| 2026-05-04 00:25 | 40.94899 | 41.35426 | 38782 ft | 505 kts | 97° |
| 2026-05-04 00:25 | 40.94552 | 41.44747 | 38782 ft | 507 kts | 97° |
| 2026-05-04 00:26 | 40.94200 | 41.54073 | 38784 ft | 506 kts | 97° |
| 2026-05-04 00:26 | 40.93842 | 41.63388 | 38793 ft | 507 kts | 97° |
| 2026-05-04 00:27 | 40.93474 | 41.72698 | 38786 ft | 507 kts | 97° |
| 2026-05-04 00:27 | 40.93097 | 41.82040 | 38798 ft | 510 kts | 97° |
| 2026-05-04 00:28 | 40.92715 | 41.91356 | 38798 ft | 511 kts | 97° |
| 2026-05-04 00:28 | 40.92320 | 42.00801 | 38807 ft | 511 kts | 98° |
| 2026-05-04 00:29 | 40.91923 | 42.10106 | 38814 ft | 511 kts | 98° |
| 2026-05-04 00:29 | 40.91514 | 42.19484 | 38832 ft | 513 kts | 98° |
| 2026-05-04 00:30 | 40.91096 | 42.28917 | 38846 ft | 514 kts | 98° |
| 2026-05-04 00:30 | 40.90670 | 42.38359 | 38852 ft | 514 kts | 98° |
| 2026-05-04 00:31 | 40.90238 | 42.47783 | 38861 ft | 514 kts | 98° |
| 2026-05-04 00:31 | 40.89795 | 42.57217 | 38869 ft | 515 kts | 98° |
| 2026-05-04 00:32 | 40.89344 | 42.66679 | 38880 ft | 516 kts | 98° |
| 2026-05-04 00:32 | 40.88886 | 42.76149 | 38891 ft | 516 kts | 98° |
| 2026-05-04 00:33 | 40.88185 | 42.90343 | 38886 ft | 516 kts | 98° |
| 2026-05-04 00:34 | 40.87710 | 42.99744 | 38900 ft | 517 kts | 99° |
| 2026-05-04 00:34 | 40.87224 | 43.09213 | 38917 ft | 516 kts | 99° |
| 2026-05-04 00:35 | 40.86730 | 43.18688 | 38913 ft | 516 kts | 99° |
| 2026-05-04 00:35 | 40.86228 | 43.28162 | 38919 ft | 516 kts | 99° |
| 2026-05-04 00:36 | 40.85720 | 43.37618 | 38919 ft | 516 kts | 99° |
| 2026-05-04 00:36 | 40.85203 | 43.47078 | 38924 ft | 516 kts | 99° |
| 2026-05-04 00:37 | 40.84678 | 43.56538 | 38925 ft | 517 kts | 99° |
| 2026-05-04 00:37 | 40.84148 | 43.65962 | 38927 ft | 517 kts | 99° |
| 2026-05-04 00:38 | 40.83681 | 43.75443 | 38913 ft | 518 kts | 97° |
| 2026-05-04 00:38 | 40.83410 | 43.84986 | 38932 ft | 520 kts | 96° |
| 2026-05-04 00:39 | 40.83146 | 43.94547 | 38928 ft | 520 kts | 97° |
| 2026-05-04 00:39 | 40.82835 | 44.04086 | 38944 ft | 520 kts | 97° |
| 2026-05-04 00:40 | 40.82501 | 44.13635 | 38941 ft | 520 kts | 97° |
| 2026-05-04 00:40 | 40.82157 | 44.23176 | 38939 ft | 521 kts | 97° |
| 2026-05-04 00:41 | 40.81806 | 44.32744 | 38943 ft | 522 kts | 97° |
| 2026-05-04 00:41 | 40.81448 | 44.42331 | 38943 ft | 522 kts | 97° |
| 2026-05-04 00:42 | 40.81083 | 44.51894 | 38941 ft | 522 kts | 97° |
| 2026-05-04 00:42 | 40.80709 | 44.61466 | 38925 ft | 522 kts | 97° |
| 2026-05-04 00:43 | 40.80328 | 44.71058 | 38951 ft | 523 kts | 98° |
| 2026-05-04 00:43 | 40.79939 | 44.80596 | 38947 ft | 524 kts | 98° |
| 2026-05-04 00:44 | 40.79542 | 44.90180 | 38938 ft | 524 kts | 98° |
| 2026-05-04 00:44 | 40.79132 | 44.99853 | 38945 ft | 524 kts | 97° |
| 2026-05-04 00:45 | 40.78718 | 45.09412 | 38943 ft | 526 kts | 98° |
| 2026-05-04 00:45 | 40.78293 | 45.19056 | 38944 ft | 527 kts | 98° |
| 2026-05-04 00:46 | 40.77860 | 45.28722 | 38956 ft | 527 kts | 98° |
| 2026-05-04 00:46 | 40.77418 | 45.38381 | 38945 ft | 528 kts | 98° |
| 2026-05-04 00:47 | 40.76969 | 45.48035 | 38932 ft | 527 kts | 98° |
| 2026-05-04 00:47 | 40.76379 | 45.57694 | 38948 ft | 526 kts | 101° |
| 2026-05-04 00:48 | 40.75451 | 45.67209 | 38945 ft | 526 kts | 102° |
| 2026-05-04 00:48 | 40.74498 | 45.76770 | 38958 ft | 526 kts | 102° |
| 2026-05-04 00:49 | 40.73592 | 45.86341 | 38953 ft | 526 kts | 101° |
| 2026-05-04 00:49 | 40.72702 | 45.95957 | 38969 ft | 527 kts | 101° |
| 2026-05-04 00:50 | 40.71810 | 46.05551 | 38979 ft | 527 kts | 101° |
| 2026-05-04 00:50 | 40.70908 | 46.15141 | 38986 ft | 527 kts | 102° |
| 2026-05-04 00:51 | 40.69997 | 46.24736 | 38994 ft | 527 kts | 102° |
| 2026-05-04 00:51 | 40.69078 | 46.34321 | 38996 ft | 528 kts | 102° |
| 2026-05-04 00:52 | 40.68149 | 46.43914 | 38991 ft | 529 kts | 102° |
| 2026-05-04 00:52 | 40.67217 | 46.53469 | 38980 ft | 528 kts | 102° |
| 2026-05-04 00:53 | 40.66272 | 46.63071 | 38979 ft | 528 kts | 102° |
| 2026-05-04 00:53 | 40.65319 | 46.72662 | 38970 ft | 529 kts | 101° |
| 2026-05-04 00:54 | 40.64355 | 46.82274 | 38978 ft | 530 kts | 101° |
| 2026-05-04 00:54 | 40.63384 | 46.91890 | 38985 ft | 530 kts | 102° |
| 2026-05-04 00:55 | 40.62404 | 47.01511 | 38987 ft | 530 kts | 102° |
| 2026-05-04 00:55 | 40.61414 | 47.11145 | 38992 ft | 531 kts | 101° |
| 2026-05-04 00:56 | 40.60641 | 47.20802 | 38987 ft | 533 kts | 96° |
| 2026-05-04 00:56 | 40.60310 | 47.30558 | 39006 ft | 532 kts | 95° |
| 2026-05-04 00:57 | 40.60039 | 47.40294 | 39008 ft | 532 kts | 95° |
| 2026-05-04 00:57 | 40.59765 | 47.50039 | 38999 ft | 532 kts | 95° |
| 2026-05-04 00:58 | 40.59474 | 47.59775 | 39007 ft | 532 kts | 95° |
| 2026-05-04 00:58 | 40.59174 | 47.69431 | 39013 ft | 531 kts | 95° |
| 2026-05-04 00:59 | 40.58864 | 47.79127 | 39007 ft | 530 kts | 95° |
| 2026-05-04 00:59 | 40.58546 | 47.88789 | 39016 ft | 529 kts | 95° |
| 2026-05-04 01:00 | 40.58252 | 47.98492 | 39009 ft | 531 kts | 93° |
| 2026-05-04 01:00 | 40.58493 | 48.08228 | 38999 ft | 534 kts | 89° |
| 2026-05-04 01:01 | 40.58907 | 48.17970 | 39003 ft | 532 kts | 89° |
| 2026-05-04 01:01 | 40.59237 | 48.27694 | 39005 ft | 532 kts | 90° |
| 2026-05-04 01:02 | 40.59496 | 48.37412 | 38999 ft | 532 kts | 90° |
| 2026-05-04 01:02 | 40.59731 | 48.47148 | 38985 ft | 531 kts | 90° |
| 2026-05-04 01:03 | 40.59958 | 48.56878 | 38996 ft | 533 kts | 90° |
| 2026-05-04 01:03 | 40.60183 | 48.66661 | 38988 ft | 535 kts | 90° |
| 2026-05-04 01:04 | 40.60399 | 48.76372 | 38987 ft | 535 kts | 90° |
| 2026-05-04 01:04 | 40.60607 | 48.86164 | 38990 ft | 535 kts | 90° |
| 2026-05-04 01:05 | 40.60809 | 48.95963 | 38997 ft | 536 kts | 91° |
| 2026-05-04 01:05 | 40.61001 | 49.05807 | 38992 ft | 540 kts | 91° |
| 2026-05-04 01:06 | 40.61176 | 49.15686 | 38995 ft | 540 kts | 92° |
| 2026-05-04 01:06 | 40.60315 | 49.25413 | 38999 ft | 534 kts | 104° |
| 2026-05-04 01:07 | 40.59116 | 49.33450 | 39002 ft | 533 kts | 105° |
| 2026-05-04 01:07 | 40.57595 | 49.42938 | 38989 ft | 533 kts | 106° |
| 2026-05-04 01:08 | 40.56054 | 49.52458 | 39011 ft | 533 kts | 106° |
| 2026-05-04 01:08 | 40.54472 | 49.61976 | 39002 ft | 532 kts | 106° |
| 2026-05-04 01:09 | 40.52884 | 49.71486 | 39001 ft | 532 kts | 106° |
| 2026-05-04 01:09 | 40.51296 | 49.81003 | 38995 ft | 532 kts | 106° |
| 2026-05-04 01:10 | 40.49709 | 49.90490 | 38980 ft | 532 kts | 106° |
| 2026-05-04 01:10 | 40.48115 | 49.99975 | 38996 ft | 532 kts | 106° |
| 2026-05-04 01:11 | 40.46554 | 50.09450 | 38996 ft | 530 kts | 104° |
| 2026-05-04 01:11 | 40.45292 | 50.18981 | 38991 ft | 530 kts | 102° |
| 2026-05-04 01:12 | 40.44089 | 50.28532 | 38994 ft | 530 kts | 103° |
| 2026-05-04 01:12 | 40.42833 | 50.38097 | 38998 ft | 530 kts | 103° |
| 2026-05-04 01:13 | 40.41543 | 50.47617 | 39001 ft | 530 kts | 103° |
| 2026-05-04 01:13 | 40.40238 | 50.57132 | 39005 ft | 530 kts | 103° |
| 2026-05-04 01:14 | 40.38927 | 50.66647 | 39010 ft | 529 kts | 103° |
| 2026-05-04 01:14 | 40.37609 | 50.76160 | 39016 ft | 529 kts | 103° |
| 2026-05-04 01:15 | 40.36285 | 50.85658 | 39020 ft | 529 kts | 103° |
| 2026-05-04 01:15 | 40.34955 | 50.95145 | 39014 ft | 530 kts | 103° |
| 2026-05-04 01:16 | 40.33615 | 51.04635 | 39018 ft | 530 kts | 103° |
| 2026-05-04 01:16 | 40.32271 | 51.14099 | 39018 ft | 530 kts | 103° |
| 2026-05-04 01:17 | 40.30912 | 51.23614 | 39018 ft | 530 kts | 103° |
| 2026-05-04 01:17 | 40.29549 | 51.33098 | 39011 ft | 531 kts | 104° |
| 2026-05-04 01:18 | 40.28178 | 51.42574 | 39015 ft | 531 kts | 104° |
| 2026-05-04 01:18 | 40.26792 | 51.52108 | 39015 ft | 532 kts | 104° |
| 2026-05-04 01:19 | 40.25404 | 51.61604 | 39020 ft | 531 kts | 104° |
| 2026-05-04 01:19 | 40.24000 | 51.71132 | 39012 ft | 531 kts | 104° |
| 2026-05-04 01:20 | 40.22596 | 51.80613 | 39009 ft | 531 kts | 104° |
| 2026-05-04 01:20 | 40.21185 | 51.90090 | 39007 ft | 531 kts | 104° |
| 2026-05-04 01:21 | 40.19762 | 51.99585 | 39010 ft | 531 kts | 104° |
| 2026-05-04 01:21 | 40.18333 | 52.09068 | 39002 ft | 531 kts | 104° |
| 2026-05-04 01:22 | 40.16897 | 52.18541 | 39008 ft | 532 kts | 104° |
| 2026-05-04 01:22 | 40.15459 | 52.27976 | 39007 ft | 533 kts | 104° |
| 2026-05-04 01:23 | 40.14002 | 52.37478 | 38996 ft | 533 kts | 104° |
| 2026-05-04 01:23 | 40.12539 | 52.46967 | 38995 ft | 533 kts | 104° |
| 2026-05-04 01:24 | 40.11065 | 52.56469 | 38993 ft | 534 kts | 104° |
| 2026-05-04 01:24 | 40.09581 | 52.65985 | 38993 ft | 534 kts | 104° |
| 2026-05-04 01:25 | 40.08093 | 52.75471 | 38996 ft | 534 kts | 104° |
| 2026-05-04 01:25 | 40.06592 | 52.84988 | 38996 ft | 535 kts | 104° |
| 2026-05-04 01:26 | 40.05085 | 52.94486 | 38994 ft | 535 kts | 104° |
| 2026-05-04 01:26 | 40.03212 | 53.03854 | 38990 ft | 531 kts | 112° |
| 2026-05-04 01:27 | 40.00730 | 53.12917 | 38993 ft | 531 kts | 114° |
| 2026-05-04 01:27 | 39.98153 | 53.21932 | 38984 ft | 531 kts | 114° |
| 2026-05-04 01:28 | 39.95562 | 53.30956 | 38989 ft | 532 kts | 114° |
| 2026-05-04 01:28 | 39.92973 | 53.39987 | 38978 ft | 532 kts | 114° |
| 2026-05-04 01:29 | 39.90379 | 53.49028 | 38966 ft | 533 kts | 114° |
| 2026-05-04 01:29 | 39.87792 | 53.58014 | 38971 ft | 534 kts | 114° |
| 2026-05-04 01:30 | 39.85178 | 53.67064 | 38971 ft | 534 kts | 114° |
| 2026-05-04 01:30 | 39.82562 | 53.76087 | 38966 ft | 533 kts | 114° |
| 2026-05-04 01:31 | 39.79930 | 53.85132 | 38969 ft | 535 kts | 114° |
| 2026-05-04 01:31 | 39.77292 | 53.94171 | 38968 ft | 535 kts | 114° |
| 2026-05-04 01:32 | 39.74643 | 54.03211 | 38972 ft | 535 kts | 114° |
| 2026-05-04 01:32 | 39.71987 | 54.12248 | 38966 ft | 537 kts | 114° |
| 2026-05-04 01:33 | 39.69315 | 54.21309 | 38970 ft | 537 kts | 114° |
| 2026-05-04 01:33 | 39.66631 | 54.30377 | 38978 ft | 537 kts | 114° |
| 2026-05-04 01:34 | 39.63941 | 54.39438 | 38985 ft | 537 kts | 114° |
| 2026-05-04 01:34 | 39.61246 | 54.48481 | 38973 ft | 538 kts | 114° |
| 2026-05-04 01:35 | 39.58545 | 54.57516 | 38980 ft | 538 kts | 114° |
| 2026-05-04 01:35 | 39.55853 | 54.66494 | 38983 ft | 538 kts | 114° |
| 2026-05-04 01:36 | 39.53134 | 54.75522 | 38985 ft | 538 kts | 114° |
| 2026-05-04 01:36 | 39.50408 | 54.84551 | 38987 ft | 538 kts | 114° |
| 2026-05-04 01:37 | 39.47673 | 54.93578 | 38985 ft | 538 kts | 114° |
| 2026-05-04 01:37 | 39.44936 | 55.02583 | 38989 ft | 538 kts | 114° |
| 2026-05-04 01:38 | 39.42185 | 55.11600 | 38984 ft | 538 kts | 114° |
| 2026-05-04 01:38 | 39.39434 | 55.20592 | 38980 ft | 538 kts | 114° |
| 2026-05-04 01:39 | 39.36675 | 55.29576 | 38980 ft | 537 kts | 114° |
| 2026-05-04 01:39 | 39.33923 | 55.38511 | 38986 ft | 535 kts | 114° |
| 2026-05-04 01:40 | 39.31165 | 55.47436 | 38988 ft | 535 kts | 114° |
| 2026-05-04 01:40 | 39.28400 | 55.56353 | 38993 ft | 535 kts | 114° |
| 2026-05-04 01:41 | 39.25347 | 55.65087 | 38993 ft | 533 kts | 119° |
| 2026-05-04 01:41 | 39.21970 | 55.73527 | 38987 ft | 533 kts | 120° |
| 2026-05-04 01:42 | 39.18586 | 55.82042 | 38994 ft | 533 kts | 119° |
| 2026-05-04 01:42 | 39.15253 | 55.90610 | 38999 ft | 534 kts | 119° |
| 2026-05-04 01:43 | 39.11948 | 55.99169 | 38999 ft | 534 kts | 119° |
| 2026-05-04 01:43 | 39.08637 | 56.07727 | 38990 ft | 533 kts | 119° |
| 2026-05-04 01:44 | 39.05322 | 56.16261 | 38997 ft | 533 kts | 119° |
| 2026-05-04 01:44 | 39.02019 | 56.24732 | 38995 ft | 533 kts | 119° |
| 2026-05-04 01:45 | 38.99027 | 56.33519 | 38993 ft | 535 kts | 112° |
| 2026-05-04 01:45 | 38.95283 | 56.47008 | 38994 ft | 536 kts | 111° |
| 2026-05-04 01:46 | 38.92819 | 56.56043 | 38991 ft | 536 kts | 111° |
| 2026-05-04 01:46 | 38.90331 | 56.65092 | 38974 ft | 537 kts | 111° |
| 2026-05-04 01:47 | 38.87827 | 56.74131 | 38988 ft | 538 kts | 111° |
| 2026-05-04 01:47 | 38.85313 | 56.83167 | 38994 ft | 538 kts | 111° |
| 2026-05-04 01:48 | 38.82791 | 56.92202 | 38980 ft | 539 kts | 111° |
| 2026-05-04 01:48 | 38.80257 | 57.01251 | 38968 ft | 539 kts | 111° |
| 2026-05-04 01:49 | 38.77716 | 57.10294 | 38977 ft | 539 kts | 111° |
| 2026-05-04 01:49 | 38.75182 | 57.19279 | 38968 ft | 540 kts | 111° |
| 2026-05-04 01:50 | 38.72623 | 57.28322 | 38953 ft | 540 kts | 111° |
| 2026-05-04 01:50 | 38.70475 | 57.35889 | 38974 ft | 540 kts | 111° |
| 2026-05-04 01:51 | 38.67901 | 57.44930 | 38965 ft | 540 kts | 111° |
| 2026-05-04 01:51 | 38.65318 | 57.53971 | 38964 ft | 541 kts | 111° |
| 2026-05-04 01:52 | 38.62727 | 57.63010 | 38966 ft | 541 kts | 111° |
| 2026-05-04 01:52 | 38.60060 | 57.71912 | 38958 ft | 541 kts | 115° |
| 2026-05-04 01:53 | 38.56935 | 57.80680 | 38961 ft | 541 kts | 117° |
| 2026-05-04 01:53 | 38.53760 | 57.89392 | 38974 ft | 541 kts | 116° |
| 2026-05-04 01:54 | 38.50632 | 57.98158 | 38967 ft | 542 kts | 116° |
| 2026-05-04 01:54 | 38.47544 | 58.06913 | 38962 ft | 542 kts | 116° |
| 2026-05-04 01:55 | 38.44447 | 58.15692 | 38962 ft | 542 kts | 116° |
| 2026-05-04 01:55 | 38.41340 | 58.24469 | 38960 ft | 543 kts | 116° |
| 2026-05-04 01:56 | 38.38937 | 58.33603 | 38958 ft | 544 kts | 105° |
| 2026-05-04 01:56 | 38.37025 | 58.42954 | 38966 ft | 545 kts | 104° |
| 2026-05-04 01:57 | 38.35183 | 58.52327 | 38964 ft | 545 kts | 104° |
| 2026-05-04 01:57 | 38.33325 | 58.61698 | 38959 ft | 545 kts | 104° |
| 2026-05-04 01:58 | 38.31447 | 58.71045 | 38981 ft | 545 kts | 104° |
| 2026-05-04 01:58 | 38.29552 | 58.80403 | 38973 ft | 545 kts | 104° |
| 2026-05-04 01:59 | 38.27650 | 58.89753 | 38988 ft | 545 kts | 104° |
| 2026-05-04 01:59 | 38.25743 | 58.99089 | 38971 ft | 545 kts | 104° |
| 2026-05-04 02:00 | 38.23825 | 59.08436 | 38981 ft | 545 kts | 104° |
| 2026-05-04 02:00 | 38.21904 | 59.17765 | 38988 ft | 545 kts | 104° |
| 2026-05-04 02:01 | 38.19985 | 59.27037 | 38994 ft | 545 kts | 104° |
| 2026-05-04 02:01 | 38.18046 | 59.36365 | 38987 ft | 545 kts | 104° |
| 2026-05-04 02:02 | 38.16105 | 59.45668 | 38986 ft | 546 kts | 104° |
| 2026-05-04 02:02 | 38.14149 | 59.55000 | 38993 ft | 546 kts | 104° |
| 2026-05-04 02:03 | 38.12188 | 59.64314 | 39002 ft | 546 kts | 104° |
| 2026-05-04 02:03 | 38.10221 | 59.73617 | 38996 ft | 546 kts | 104° |
| 2026-05-04 02:04 | 38.08241 | 59.82940 | 38998 ft | 546 kts | 104° |
| 2026-05-04 02:04 | 38.06257 | 59.92243 | 38997 ft | 546 kts | 104° |
| 2026-05-04 02:05 | 38.04265 | 60.01547 | 38998 ft | 547 kts | 104° |
| 2026-05-04 02:05 | 38.02260 | 60.10849 | 39016 ft | 547 kts | 105° |
| 2026-05-04 02:06 | 37.99130 | 60.19566 | 39016 ft | 544 kts | 126° |
| 2026-05-04 02:06 | 37.94307 | 60.26925 | 39008 ft | 543 kts | 134° |
| 2026-05-04 02:07 | 37.89176 | 60.33950 | 39012 ft | 543 kts | 135° |
| 2026-05-04 02:07 | 37.84042 | 60.40900 | 38995 ft | 543 kts | 135° |
| 2026-05-04 02:08 | 37.78872 | 60.47941 | 39031 ft | 543 kts | 135° |
| 2026-05-04 02:08 | 37.73761 | 60.54920 | 39030 ft | 544 kts | 135° |
| 2026-05-04 02:09 | 37.68492 | 60.61759 | 38996 ft | 543 kts | 137° |
| 2026-05-04 02:09 | 37.63129 | 60.68518 | 39026 ft | 544 kts | 137° |
| 2026-05-04 02:10 | 37.57790 | 60.75278 | 39043 ft | 544 kts | 137° |
| 2026-05-04 02:10 | 37.52457 | 60.82054 | 39025 ft | 545 kts | 137° |
| 2026-05-04 02:11 | 37.47114 | 60.88855 | 39031 ft | 546 kts | 137° |
| 2026-05-04 02:11 | 37.41779 | 60.95631 | 39032 ft | 546 kts | 137° |
| 2026-05-04 02:12 | 37.36448 | 61.02382 | 39037 ft | 546 kts | 137° |
| 2026-05-04 02:12 | 37.31127 | 61.09105 | 39046 ft | 546 kts | 137° |
| 2026-05-04 02:13 | 37.25737 | 61.15900 | 39047 ft | 546 kts | 137° |
| 2026-05-04 02:13 | 37.20380 | 61.22639 | 39039 ft | 546 kts | 137° |
| 2026-05-04 02:14 | 37.15005 | 61.29390 | 39042 ft | 547 kts | 137° |
| 2026-05-04 02:14 | 37.09615 | 61.36125 | 39034 ft | 547 kts | 137° |
| 2026-05-04 02:15 | 37.04230 | 61.42841 | 39039 ft | 546 kts | 137° |
| 2026-05-04 02:15 | 36.98848 | 61.49544 | 39040 ft | 547 kts | 137° |
| 2026-05-04 02:16 | 36.93466 | 61.56234 | 39039 ft | 547 kts | 137° |
| 2026-05-04 02:16 | 36.88065 | 61.62935 | 39030 ft | 547 kts | 137° |
| 2026-05-04 02:17 | 36.82656 | 61.69644 | 39044 ft | 549 kts | 137° |
| 2026-05-04 02:17 | 36.77226 | 61.76352 | 39045 ft | 549 kts | 137° |
| 2026-05-04 02:18 | 36.71797 | 61.83047 | 39036 ft | 549 kts | 137° |
| 2026-05-04 02:18 | 36.66364 | 61.89735 | 39042 ft | 549 kts | 137° |
| 2026-05-04 02:19 | 36.60919 | 61.96425 | 39046 ft | 549 kts | 137° |
| 2026-05-04 02:19 | 36.55479 | 62.03095 | 39040 ft | 548 kts | 137° |
| 2026-05-04 02:20 | 36.50037 | 62.09753 | 39051 ft | 549 kts | 137° |
| 2026-05-04 02:20 | 36.44588 | 62.16405 | 39051 ft | 549 kts | 137° |
| 2026-05-04 02:21 | 36.39138 | 62.23045 | 39066 ft | 549 kts | 137° |
| 2026-05-04 02:21 | 36.33663 | 62.29702 | 39052 ft | 550 kts | 137° |
| 2026-05-04 02:22 | 36.28190 | 62.36341 | 39055 ft | 551 kts | 137° |
| 2026-05-04 02:22 | 36.22713 | 62.42973 | 39039 ft | 551 kts | 138° |
| 2026-05-04 02:23 | 36.17252 | 62.49571 | 39059 ft | 552 kts | 138° |
| 2026-05-04 02:23 | 36.11742 | 62.56214 | 39060 ft | 552 kts | 137° |
| 2026-05-04 02:24 | 36.06225 | 62.62852 | 39058 ft | 552 kts | 137° |
| 2026-05-04 02:24 | 36.00720 | 62.69465 | 39059 ft | 553 kts | 138° |
| 2026-05-04 02:25 | 35.95206 | 62.76073 | 39059 ft | 553 kts | 138° |
| 2026-05-04 02:25 | 35.89680 | 62.82681 | 39059 ft | 553 kts | 138° |
| 2026-05-04 02:26 | 35.84149 | 62.89282 | 39064 ft | 553 kts | 138° |
| 2026-05-04 02:26 | 35.78625 | 62.95861 | 39067 ft | 552 kts | 138° |
| 2026-05-04 02:27 | 35.73098 | 63.02430 | 39070 ft | 552 kts | 138° |
| 2026-05-04 02:27 | 35.67559 | 63.09000 | 39071 ft | 552 kts | 138° |
| 2026-05-04 02:28 | 35.62063 | 63.15507 | 39074 ft | 552 kts | 138° |
| 2026-05-04 02:28 | 35.56828 | 63.22402 | 39076 ft | 553 kts | 130° |
| 2026-05-04 02:29 | 35.52071 | 63.29835 | 39078 ft | 554 kts | 128° |
| 2026-05-04 02:29 | 35.47368 | 63.37375 | 39078 ft | 555 kts | 128° |
| 2026-05-04 02:30 | 35.42671 | 63.44894 | 39091 ft | 556 kts | 128° |
| 2026-05-04 02:30 | 35.37960 | 63.52389 | 39082 ft | 554 kts | 128° |
| 2026-05-04 02:31 | 35.33238 | 63.59874 | 39086 ft | 556 kts | 128° |
| 2026-05-04 02:31 | 35.28535 | 63.67317 | 39090 ft | 556 kts | 128° |
| 2026-05-04 02:32 | 35.23809 | 63.74823 | 39114 ft | 556 kts | 128° |
| 2026-05-04 02:32 | 35.19084 | 63.82312 | 39097 ft | 555 kts | 128° |
| 2026-05-04 02:33 | 35.14354 | 63.89792 | 39102 ft | 556 kts | 128° |
| 2026-05-04 02:33 | 35.09625 | 63.97252 | 39101 ft | 556 kts | 128° |
| 2026-05-04 02:34 | 35.05679 | 64.03465 | 39092 ft | 556 kts | 128° |
| 2026-05-04 02:34 | 35.00941 | 64.10911 | 39105 ft | 556 kts | 128° |
| 2026-05-04 02:35 | 34.96203 | 64.18342 | 39110 ft | 555 kts | 128° |
| 2026-05-04 02:35 | 34.91448 | 64.25784 | 39114 ft | 555 kts | 128° |
| 2026-05-04 02:36 | 34.86691 | 64.33213 | 39096 ft | 555 kts | 128° |
| 2026-05-04 02:36 | 34.81926 | 64.40637 | 39130 ft | 556 kts | 128° |
| 2026-05-04 02:37 | 34.77194 | 64.47994 | 39130 ft | 555 kts | 128° |
| 2026-05-04 02:37 | 34.72434 | 64.55382 | 39144 ft | 555 kts | 128° |
| 2026-05-04 02:38 | 34.67660 | 64.62777 | 39145 ft | 556 kts | 129° |
| 2026-05-04 02:38 | 34.62870 | 64.70180 | 39156 ft | 557 kts | 129° |
| 2026-05-04 02:39 | 34.58069 | 64.77583 | 39165 ft | 558 kts | 129° |
| 2026-05-04 02:39 | 34.53265 | 64.84976 | 39165 ft | 558 kts | 129° |
| 2026-05-04 02:40 | 34.48450 | 64.92368 | 39164 ft | 559 kts | 129° |
| 2026-05-04 02:40 | 34.43623 | 64.99746 | 39178 ft | 559 kts | 129° |
| 2026-05-04 02:41 | 34.38791 | 65.07117 | 39168 ft | 557 kts | 129° |
| 2026-05-04 02:41 | 34.33969 | 65.14458 | 39153 ft | 557 kts | 129° |
| 2026-05-04 02:42 | 34.29138 | 65.21800 | 39161 ft | 559 kts | 129° |
| 2026-05-04 02:42 | 34.24278 | 65.29168 | 39156 ft | 560 kts | 129° |
| 2026-05-04 02:43 | 34.19454 | 65.36467 | 39158 ft | 558 kts | 129° |
| 2026-05-04 02:43 | 34.14566 | 65.43850 | 39143 ft | 559 kts | 129° |
| 2026-05-04 02:44 | 34.09739 | 65.51124 | 39140 ft | 560 kts | 129° |
| 2026-05-04 02:44 | 34.04867 | 65.58458 | 39139 ft | 561 kts | 129° |
| 2026-05-04 02:45 | 33.99987 | 65.65805 | 39130 ft | 560 kts | 129° |
| 2026-05-04 02:45 | 33.95106 | 65.73134 | 39114 ft | 560 kts | 129° |
| 2026-05-04 02:46 | 33.90231 | 65.80444 | 39115 ft | 560 kts | 129° |
| 2026-05-04 02:46 | 33.85348 | 65.87749 | 39115 ft | 560 kts | 129° |
| 2026-05-04 02:47 | 33.80467 | 65.95033 | 39099 ft | 560 kts | 129° |
| 2026-05-04 02:47 | 33.75571 | 66.02326 | 39104 ft | 560 kts | 129° |
| 2026-05-04 02:48 | 33.70680 | 66.09598 | 39092 ft | 560 kts | 129° |
| 2026-05-04 02:48 | 33.65779 | 66.16867 | 39080 ft | 560 kts | 129° |
| 2026-05-04 02:49 | 33.60864 | 66.24147 | 39071 ft | 560 kts | 129° |
| 2026-05-04 02:49 | 33.55988 | 66.31353 | 39073 ft | 559 kts | 129° |
| 2026-05-04 02:50 | 33.51082 | 66.38591 | 39084 ft | 559 kts | 129° |
| 2026-05-04 02:50 | 33.46180 | 66.45807 | 39072 ft | 559 kts | 130° |
| 2026-05-04 02:51 | 33.41269 | 66.53014 | 39072 ft | 559 kts | 130° |
| 2026-05-04 02:51 | 33.36325 | 66.60219 | 39086 ft | 560 kts | 130° |
| 2026-05-04 02:52 | 33.31385 | 66.67403 | 39092 ft | 557 kts | 130° |
| 2026-05-04 02:52 | 33.26469 | 66.74547 | 39081 ft | 556 kts | 130° |
| 2026-05-04 02:53 | 33.21544 | 66.81693 | 39089 ft | 557 kts | 130° |
| 2026-05-04 02:53 | 33.16638 | 66.88800 | 39082 ft | 559 kts | 130° |
| 2026-05-04 02:54 | 33.11686 | 66.95958 | 39069 ft | 558 kts | 129° |
| 2026-05-04 02:54 | 33.06744 | 67.03098 | 39074 ft | 558 kts | 130° |
| 2026-05-04 02:55 | 32.99289 | 67.13817 | 39049 ft | 563 kts | 130° |
| 2026-05-04 02:56 | 32.94282 | 67.21002 | 39017 ft | 563 kts | 130° |
| 2026-05-04 02:56 | 32.89268 | 67.28185 | 39002 ft | 564 kts | 130° |
| 2026-05-04 02:57 | 32.84245 | 67.35368 | 38986 ft | 565 kts | 130° |
| 2026-05-04 02:57 | 32.79218 | 67.42543 | 38989 ft | 564 kts | 130° |
| 2026-05-04 02:58 | 32.74155 | 67.49671 | 38987 ft | 564 kts | 132° |
| 2026-05-04 02:58 | 32.68941 | 67.56627 | 38988 ft | 563 kts | 133° |
| 2026-05-04 02:59 | 32.63778 | 67.63462 | 38973 ft | 557 kts | 133° |
| 2026-05-04 02:59 | 32.58640 | 67.70308 | 38986 ft | 555 kts | 133° |
| 2026-05-04 03:00 | 32.53509 | 67.77164 | 38986 ft | 555 kts | 133° |
| 2026-05-04 03:00 | 32.48391 | 67.84032 | 38991 ft | 555 kts | 131° |
| 2026-05-04 03:01 | 32.43468 | 67.91086 | 38989 ft | 557 kts | 129° |
| 2026-05-04 03:01 | 32.38584 | 67.98220 | 38985 ft | 559 kts | 130° |
| 2026-05-04 03:02 | 32.33647 | 68.05352 | 38988 ft | 560 kts | 130° |
| 2026-05-04 03:02 | 32.28714 | 68.12414 | 38990 ft | 560 kts | 130° |
| 2026-05-04 03:03 | 32.23743 | 68.19501 | 39002 ft | 560 kts | 130° |
| 2026-05-04 03:03 | 32.18749 | 68.26608 | 38982 ft | 563 kts | 130° |
| 2026-05-04 03:04 | 32.13752 | 68.33710 | 38971 ft | 563 kts | 130° |
| 2026-05-04 03:04 | 32.08743 | 68.40818 | 38971 ft | 563 kts | 130° |
| 2026-05-04 03:05 | 32.03734 | 68.47912 | 38966 ft | 563 kts | 130° |
| 2026-05-04 03:05 | 31.98709 | 68.55014 | 38965 ft | 563 kts | 131° |
| 2026-05-04 03:06 | 31.93707 | 68.62071 | 38949 ft | 560 kts | 131° |
| 2026-05-04 03:06 | 31.88748 | 68.69055 | 38952 ft | 560 kts | 131° |
| 2026-05-04 03:07 | 31.83727 | 68.76110 | 38930 ft | 560 kts | 131° |
| 2026-05-04 03:07 | 31.78724 | 68.83130 | 38937 ft | 560 kts | 131° |
| 2026-05-04 03:08 | 31.73718 | 68.90138 | 38924 ft | 559 kts | 131° |
| 2026-05-04 03:08 | 31.68730 | 68.97112 | 38916 ft | 557 kts | 131° |
| 2026-05-04 03:09 | 31.63762 | 69.04131 | 39057 ft | 559 kts | 129° |
| 2026-05-04 03:09 | 31.61343 | 69.07721 | 39185 ft | 560 kts | 129° |
| 2026-05-04 03:09 | 31.58957 | 69.11314 | 39340 ft | 560 kts | 129° |
| 2026-05-04 03:09 | 31.56570 | 69.14915 | 39506 ft | 559 kts | 129° |
| 2026-05-04 03:10 | 31.54169 | 69.18522 | 39672 ft | 558 kts | 129° |
| 2026-05-04 03:10 | 31.51775 | 69.22093 | 39909 ft | 556 kts | 129° |
| 2026-05-04 03:10 | 31.49397 | 69.25625 | 40179 ft | 552 kts | 129° |
| 2026-05-04 03:10 | 31.47010 | 69.29158 | 40319 ft | 552 kts | 129° |
| 2026-05-04 03:11 | 31.44627 | 69.32677 | 40395 ft | 553 kts | 129° |
| 2026-05-04 03:11 | 31.39794 | 69.39712 | 40490 ft | 555 kts | 134° |
| 2026-05-04 03:11 | 31.37018 | 69.42837 | 40600 ft | 551 kts | 144° |
| 2026-05-04 03:12 | 31.33870 | 69.45343 | 40700 ft | 545 kts | 155° |
| 2026-05-04 03:12 | 31.30427 | 69.47120 | 40795 ft | 537 kts | 167° |
| 2026-05-04 03:12 | 31.26881 | 69.48258 | 40876 ft | 533 kts | 172° |
| 2026-05-04 03:13 | 31.19641 | 69.50110 | 40861 ft | 531 kts | 174° |
| 2026-05-04 03:13 | 31.12385 | 69.51829 | 40880 ft | 532 kts | 174° |
| 2026-05-04 03:14 | 31.05128 | 69.53586 | 40889 ft | 532 kts | 174° |
| 2026-05-04 03:14 | 30.97880 | 69.55379 | 40880 ft | 531 kts | 173° |
| 2026-05-04 03:15 | 30.90650 | 69.57175 | 40871 ft | 531 kts | 174° |
| 2026-05-04 03:15 | 30.83410 | 69.58969 | 40867 ft | 531 kts | 174° |
| 2026-05-04 03:16 | 30.76228 | 69.60744 | 40866 ft | 532 kts | 174° |
| 2026-05-04 03:16 | 30.69000 | 69.62529 | 40818 ft | 532 kts | 174° |
| 2026-05-04 03:17 | 30.61737 | 69.64317 | 40854 ft | 532 kts | 174° |
| 2026-05-04 03:17 | 30.55710 | 69.65800 | 40851 ft | 533 kts | 174° |
| 2026-05-04 03:18 | 30.47224 | 69.67886 | 40845 ft | 533 kts | 174° |
| 2026-05-04 03:18 | 30.39970 | 69.69666 | 40833 ft | 533 kts | 174° |
| 2026-05-04 03:19 | 30.33942 | 69.71143 | 40836 ft | 533 kts | 174° |
| 2026-05-04 03:19 | 30.26679 | 69.72920 | 40838 ft | 533 kts | 174° |
| 2026-05-04 03:20 | 30.18251 | 69.75158 | 40798 ft | 536 kts | 172° |
| 2026-05-04 03:20 | 30.12203 | 69.76978 | 40821 ft | 537 kts | 172° |
| 2026-05-04 03:21 | 30.05008 | 69.79138 | 40818 ft | 538 kts | 172° |
| 2026-05-04 03:21 | 29.97744 | 69.81273 | 40805 ft | 537 kts | 172° |
| 2026-05-04 03:22 | 29.90446 | 69.83393 | 40781 ft | 537 kts | 172° |
| 2026-05-04 03:22 | 29.83229 | 69.85481 | 40795 ft | 538 kts | 172° |
| 2026-05-04 03:23 | 29.75922 | 69.87594 | 40780 ft | 538 kts | 172° |
| 2026-05-04 03:23 | 29.68710 | 69.89680 | 40768 ft | 537 kts | 172° |
| 2026-05-04 03:24 | 29.61471 | 69.91770 | 40754 ft | 537 kts | 172° |
| 2026-05-04 03:24 | 29.54220 | 69.93860 | 40743 ft | 537 kts | 172° |
| 2026-05-04 03:25 | 29.46976 | 69.95943 | 40747 ft | 537 kts | 172° |
| 2026-05-04 03:25 | 29.39723 | 69.98026 | 40716 ft | 537 kts | 172° |
| 2026-05-04 03:26 | 29.32456 | 70.00110 | 40739 ft | 538 kts | 172° |
| 2026-05-04 03:26 | 29.25194 | 70.02190 | 40734 ft | 538 kts | 172° |
| 2026-05-04 03:27 | 29.17926 | 70.04270 | 40730 ft | 538 kts | 172° |
| 2026-05-04 03:27 | 29.10663 | 70.06344 | 40723 ft | 538 kts | 172° |
| 2026-05-04 03:28 | 29.03404 | 70.08415 | 40716 ft | 538 kts | 172° |
| 2026-05-04 03:28 | 28.96147 | 70.10481 | 40716 ft | 538 kts | 172° |
| 2026-05-04 03:29 | 28.88893 | 70.12544 | 40716 ft | 538 kts | 172° |
| 2026-05-04 03:29 | 28.81627 | 70.14608 | 40714 ft | 537 kts | 172° |
| 2026-05-04 03:30 | 28.74388 | 70.16661 | 40708 ft | 537 kts | 172° |
| 2026-05-04 03:30 | 28.67174 | 70.18703 | 40704 ft | 536 kts | 172° |
| 2026-05-04 03:31 | 28.59929 | 70.20751 | 40695 ft | 536 kts | 172° |
| 2026-05-04 03:31 | 28.52700 | 70.22794 | 40702 ft | 534 kts | 172° |
| 2026-05-04 03:32 | 28.45487 | 70.24880 | 40698 ft | 537 kts | 168° |
| 2026-05-04 03:32 | 28.38721 | 70.28639 | 40701 ft | 551 kts | 147° |
| 2026-05-04 03:32 | 28.35826 | 70.31537 | 40671 ft | 556 kts | 134° |
| 2026-05-04 03:33 | 28.33475 | 70.35013 | 40696 ft | 559 kts | 122° |
| 2026-05-04 03:33 | 28.29865 | 70.42862 | 40695 ft | 561 kts | 116° |
| 2026-05-04 03:34 | 28.26532 | 70.50875 | 40698 ft | 562 kts | 115° |
| 2026-05-04 03:34 | 28.23191 | 70.58869 | 40698 ft | 561 kts | 116° |
| 2026-05-04 03:35 | 28.19797 | 70.66845 | 40691 ft | 560 kts | 116° |
| 2026-05-04 03:35 | 28.16389 | 70.74784 | 40689 ft | 560 kts | 116° |
| 2026-05-04 03:36 | 28.12978 | 70.82709 | 40683 ft | 560 kts | 116° |
| 2026-05-04 03:36 | 28.09557 | 70.90648 | 40695 ft | 560 kts | 117° |
| 2026-05-04 03:37 | 28.06165 | 70.98505 | 40690 ft | 558 kts | 117° |
| 2026-05-04 03:37 | 28.02751 | 71.06401 | 40686 ft | 558 kts | 117° |
| 2026-05-04 03:38 | 27.99333 | 71.14290 | 40690 ft | 558 kts | 117° |
| 2026-05-04 03:38 | 27.95911 | 71.22170 | 40681 ft | 558 kts | 117° |
| 2026-05-04 03:39 | 27.92489 | 71.30039 | 40673 ft | 558 kts | 117° |
| 2026-05-04 03:39 | 27.89052 | 71.37924 | 40682 ft | 559 kts | 117° |
| 2026-05-04 03:40 | 27.85603 | 71.45798 | 40683 ft | 558 kts | 118° |
| 2026-05-04 03:40 | 27.82029 | 71.53574 | 40681 ft | 558 kts | 118° |
| 2026-05-04 03:41 | 27.78411 | 71.61329 | 40682 ft | 557 kts | 119° |
| 2026-05-04 03:41 | 27.74821 | 71.69059 | 40683 ft | 556 kts | 118° |
| 2026-05-04 03:42 | 27.71236 | 71.76804 | 40665 ft | 555 kts | 118° |
| 2026-05-04 03:42 | 27.67652 | 71.84543 | 40687 ft | 556 kts | 118° |
| 2026-05-04 03:43 | 27.64068 | 71.92267 | 40687 ft | 556 kts | 119° |
| 2026-05-04 03:43 | 27.60472 | 72.00000 | 40683 ft | 555 kts | 119° |
| 2026-05-04 03:44 | 27.56907 | 72.07652 | 40683 ft | 555 kts | 119° |
| 2026-05-04 03:44 | 27.53290 | 72.15400 | 40683 ft | 555 kts | 119° |
| 2026-05-04 03:45 | 27.49692 | 72.23093 | 40659 ft | 555 kts | 119° |
| 2026-05-04 03:45 | 27.46086 | 72.30791 | 40685 ft | 555 kts | 119° |
| 2026-05-04 03:46 | 27.42476 | 72.38483 | 40682 ft | 555 kts | 119° |
| 2026-05-04 03:46 | 27.38887 | 72.46117 | 40682 ft | 555 kts | 119° |
| 2026-05-04 03:47 | 27.35261 | 72.53815 | 40684 ft | 555 kts | 119° |
| 2026-05-04 03:47 | 27.31640 | 72.61488 | 40689 ft | 555 kts | 120° |
| 2026-05-04 03:48 | 27.28017 | 72.69152 | 40684 ft | 554 kts | 120° |
| 2026-05-04 03:48 | 27.24403 | 72.76783 | 40687 ft | 553 kts | 120° |
| 2026-05-04 03:49 | 27.20778 | 72.84422 | 40693 ft | 553 kts | 120° |
| 2026-05-04 03:49 | 27.17179 | 72.91994 | 40695 ft | 553 kts | 120° |
| 2026-05-04 03:50 | 27.13551 | 72.99615 | 40695 ft | 552 kts | 120° |
| 2026-05-04 03:50 | 27.09938 | 73.07190 | 40694 ft | 551 kts | 120° |
| 2026-05-04 03:51 | 27.06307 | 73.14788 | 40705 ft | 551 kts | 120° |
| 2026-05-04 03:51 | 27.02688 | 73.22350 | 40696 ft | 549 kts | 121° |
| 2026-05-04 03:52 | 26.99072 | 73.29890 | 40702 ft | 548 kts | 121° |
| 2026-05-04 03:52 | 26.95463 | 73.37404 | 40716 ft | 546 kts | 121° |
| 2026-05-04 03:53 | 26.91845 | 73.44851 | 40715 ft | 545 kts | 122° |
| 2026-05-04 03:53 | 26.88187 | 73.52296 | 40740 ft | 545 kts | 122° |
| 2026-05-04 03:54 | 26.84529 | 73.59740 | 40725 ft | 545 kts | 122° |
| 2026-05-04 03:54 | 26.80873 | 73.67182 | 40707 ft | 545 kts | 122° |
| 2026-05-04 03:55 | 26.77219 | 73.74613 | 40735 ft | 544 kts | 122° |
| 2026-05-04 03:55 | 26.73572 | 73.82016 | 40745 ft | 544 kts | 122° |
| 2026-05-04 03:56 | 26.69913 | 73.89431 | 40750 ft | 544 kts | 122° |
| 2026-05-04 03:56 | 26.66258 | 73.96826 | 40763 ft | 544 kts | 122° |
| 2026-05-04 03:57 | 26.62615 | 74.04185 | 40763 ft | 543 kts | 122° |
| 2026-05-04 03:57 | 26.58956 | 74.11564 | 40772 ft | 542 kts | 123° |
| 2026-05-04 03:58 | 26.53475 | 74.22621 | 40789 ft | 542 kts | 122° |
| 2026-05-04 03:58 | 26.49855 | 74.30029 | 40792 ft | 542 kts | 122° |
| 2026-05-04 03:59 | 26.46246 | 74.37422 | 40811 ft | 542 kts | 123° |
| 2026-05-04 03:59 | 26.42625 | 74.44815 | 40804 ft | 543 kts | 123° |
| 2026-05-04 04:00 | 26.38997 | 74.52198 | 40817 ft | 543 kts | 123° |
| 2026-05-04 04:00 | 26.35361 | 74.59582 | 40831 ft | 543 kts | 123° |
| 2026-05-04 04:01 | 26.31729 | 74.66945 | 40825 ft | 543 kts | 123° |
| 2026-05-04 04:01 | 26.28705 | 74.73069 | 40838 ft | 543 kts | 123° |
| 2026-05-04 04:02 | 26.24468 | 74.81634 | 40841 ft | 543 kts | 123° |
| 2026-05-04 04:02 | 26.20819 | 74.88998 | 40840 ft | 543 kts | 123° |
| 2026-05-04 04:03 | 26.17738 | 74.95142 | 40842 ft | 541 kts | 126° |
| 2026-05-04 04:03 | 26.13631 | 75.02146 | 40845 ft | 539 kts | 128° |
| 2026-05-04 04:04 | 26.09468 | 75.09018 | 40853 ft | 539 kts | 129° |
| 2026-05-04 04:04 | 26.05267 | 75.15903 | 40854 ft | 537 kts | 129° |
| 2026-05-04 04:05 | 26.01067 | 75.22787 | 40854 ft | 537 kts | 129° |
| 2026-05-04 04:05 | 25.96874 | 75.29657 | 40853 ft | 537 kts | 129° |
| 2026-05-04 04:06 | 25.92682 | 75.36520 | 40853 ft | 537 kts | 129° |
| 2026-05-04 04:06 | 25.88483 | 75.43385 | 40863 ft | 537 kts | 129° |
| 2026-05-04 04:07 | 25.84179 | 75.50077 | 40848 ft | 535 kts | 133° |
| 2026-05-04 04:07 | 25.79640 | 75.56611 | 40843 ft | 532 kts | 133° |
| 2026-05-04 04:08 | 25.75123 | 75.63116 | 40845 ft | 532 kts | 133° |
| 2026-05-04 04:08 | 25.70642 | 75.69644 | 40840 ft | 532 kts | 133° |
| 2026-05-04 04:09 | 25.66175 | 75.76181 | 40839 ft | 532 kts | 133° |
| 2026-05-04 04:09 | 25.61707 | 75.82719 | 40832 ft | 532 kts | 133° |
| 2026-05-04 04:10 | 25.57234 | 75.89250 | 40835 ft | 532 kts | 133° |
| 2026-05-04 04:10 | 25.52750 | 75.95787 | 40831 ft | 532 kts | 133° |
| 2026-05-04 04:11 | 25.48295 | 76.02272 | 40831 ft | 532 kts | 133° |
| 2026-05-04 04:11 | 25.43812 | 76.08789 | 40829 ft | 532 kts | 133° |
| 2026-05-04 04:12 | 25.39330 | 76.15294 | 40821 ft | 532 kts | 133° |
| 2026-05-04 04:12 | 25.34846 | 76.21795 | 40825 ft | 531 kts | 133° |
| 2026-05-04 04:13 | 25.30370 | 76.28275 | 40799 ft | 530 kts | 133° |
| 2026-05-04 04:13 | 25.25896 | 76.34743 | 40819 ft | 528 kts | 133° |
| 2026-05-04 04:14 | 25.21428 | 76.41193 | 40823 ft | 528 kts | 133° |
| 2026-05-04 04:14 | 25.16991 | 76.47589 | 40824 ft | 528 kts | 133° |
| 2026-05-04 04:15 | 25.12525 | 76.54018 | 40821 ft | 528 kts | 133° |
| 2026-05-04 04:15 | 25.08050 | 76.60452 | 40826 ft | 528 kts | 133° |
| 2026-05-04 04:16 | 25.03583 | 76.66867 | 40829 ft | 528 kts | 133° |
| 2026-05-04 04:16 | 24.98970 | 76.73127 | 40827 ft | 522 kts | 138° |
| 2026-05-04 04:17 | 24.94029 | 76.78967 | 40827 ft | 521 kts | 140° |
| 2026-05-04 04:17 | 24.89019 | 76.84746 | 40842 ft | 520 kts | 140° |
| 2026-05-04 04:18 | 24.84011 | 76.90507 | 40832 ft | 520 kts | 140° |
| 2026-05-04 04:18 | 24.79016 | 76.96263 | 40834 ft | 520 kts | 139° |
| 2026-05-04 04:19 | 24.74026 | 77.02014 | 40823 ft | 520 kts | 139° |
| 2026-05-04 04:19 | 24.69058 | 77.07734 | 40836 ft | 520 kts | 140° |
| 2026-05-04 04:20 | 24.64062 | 77.13480 | 40843 ft | 520 kts | 140° |
| 2026-05-04 04:20 | 24.59059 | 77.19226 | 40844 ft | 519 kts | 140° |
| 2026-05-04 04:21 | 24.54057 | 77.24963 | 40834 ft | 519 kts | 140° |
| 2026-05-04 04:21 | 24.49062 | 77.30687 | 40839 ft | 518 kts | 140° |
| 2026-05-04 04:22 | 24.44063 | 77.36406 | 40835 ft | 518 kts | 139° |
| 2026-05-04 04:22 | 24.39074 | 77.42107 | 40834 ft | 518 kts | 139° |
| 2026-05-04 04:23 | 24.34083 | 77.47804 | 40837 ft | 518 kts | 140° |
| 2026-05-04 04:23 | 24.29123 | 77.53458 | 40835 ft | 518 kts | 140° |
| 2026-05-04 04:24 | 24.24101 | 77.59177 | 40838 ft | 518 kts | 140° |
| 2026-05-04 04:24 | 24.19131 | 77.64828 | 40805 ft | 517 kts | 139° |
| 2026-05-04 04:25 | 24.14112 | 77.70481 | 40783 ft | 517 kts | 140° |
| 2026-05-04 04:25 | 24.09040 | 77.76082 | 40773 ft | 517 kts | 140° |
| 2026-05-04 04:26 | 24.03924 | 77.81592 | 40761 ft | 516 kts | 141° |
| 2026-05-04 04:26 | 23.98742 | 77.87016 | 40767 ft | 515 kts | 142° |
| 2026-05-04 04:27 | 23.93526 | 77.92308 | 40745 ft | 514 kts | 143° |
| 2026-05-04 04:27 | 23.88206 | 77.97525 | 40712 ft | 513 kts | 144° |
| 2026-05-04 04:28 | 23.82778 | 78.02651 | 40747 ft | 512 kts | 145° |
| 2026-05-04 04:28 | 23.77348 | 78.07589 | 40758 ft | 511 kts | 146° |
| 2026-05-04 04:29 | 23.71803 | 78.12444 | 40738 ft | 510 kts | 147° |
| 2026-05-04 04:29 | 23.66152 | 78.17205 | 40743 ft | 509 kts | 148° |
| 2026-05-04 04:30 | 23.60511 | 78.21787 | 40748 ft | 508 kts | 149° |
| 2026-05-04 04:30 | 23.54771 | 78.26274 | 40739 ft | 508 kts | 150° |
| 2026-05-04 04:31 | 23.48963 | 78.30654 | 40716 ft | 507 kts | 151° |
| 2026-05-04 04:31 | 23.43108 | 78.34930 | 40748 ft | 506 kts | 152° |
| 2026-05-04 04:32 | 23.37207 | 78.39121 | 40762 ft | 505 kts | 153° |
| 2026-05-04 04:32 | 23.31274 | 78.43217 | 40751 ft | 505 kts | 153° |
| 2026-05-04 04:33 | 23.25295 | 78.47207 | 40781 ft | 503 kts | 154° |
| 2026-05-04 04:33 | 23.19273 | 78.51089 | 40837 ft | 502 kts | 155° |
| 2026-05-04 04:34 | 23.13220 | 78.54856 | 40800 ft | 502 kts | 156° |
| 2026-05-04 04:34 | 23.07110 | 78.58531 | 40777 ft | 502 kts | 157° |
| 2026-05-04 04:35 | 23.00957 | 78.62100 | 40785 ft | 500 kts | 158° |
| 2026-05-04 04:35 | 22.94777 | 78.65534 | 40868 ft | 498 kts | 159° |
| 2026-05-04 04:36 | 22.88555 | 78.68830 | 40877 ft | 497 kts | 160° |
| 2026-05-04 04:36 | 22.82268 | 78.71985 | 40833 ft | 497 kts | 161° |
| 2026-05-04 04:37 | 22.69611 | 78.77841 | 40875 ft | 494 kts | 163° |
| 2026-05-04 04:38 | 22.63202 | 78.80547 | 40872 ft | 494 kts | 164° |
| 2026-05-04 04:38 | 22.56750 | 78.83103 | 40863 ft | 493 kts | 165° |
| 2026-05-04 04:39 | 22.50255 | 78.85513 | 40876 ft | 492 kts | 167° |
| 2026-05-04 04:39 | 22.43727 | 78.87756 | 40900 ft | 491 kts | 168° |
| 2026-05-04 04:40 | 22.37179 | 78.89846 | 40881 ft | 490 kts | 169° |
| 2026-05-04 04:40 | 22.30589 | 78.91783 | 40847 ft | 491 kts | 170° |
| 2026-05-04 04:41 | 22.24013 | 78.93567 | 40862 ft | 489 kts | 171° |
| 2026-05-04 04:41 | 22.17383 | 78.95212 | 40887 ft | 488 kts | 172° |